<?xml version="1.0" encoding="UTF-8" standalone="no" ?>
<gpx xmlns="http://www.topografix.com/GPX/1/1" xmlns:xsi="http://www.w3.org/2001/XMLSchema-instance" xsi:schemaLocation="http://www.topografix.com/GPX/1/1 http://www.topografix.com/GPX/1/1/gpx.xsd" version="1.1" creator="VisuGPX - https://www.visugpx.com">
  <metadata>
    <name>De broves au viaduc du rayol</name>
    <desc><![CDATA[balade par le chemin des écoliers elle peut se prolonger en passant plus au nord
.le viaduc du rayol est un site particulierement  interessant.
le GPS fatigue  : -49 m c\'est pas possible et 3 km en trop]]></desc>
  </metadata>
  <wpt lat="43.6017" lon="6.63149">
    <ele>-49</ele>
  </wpt>
  <wpt lat="43.61379" lon="6.64154">
    <ele>378</ele>
  </wpt>
  <trk>
    <name><![CDATA[De broves au viaduc du rayol_1]]></name>
    <trkseg>
      <trkpt lat="43.6017" lon="6.63149">
        <ele>-49</ele>
        <time>2011-01-31T08:17:34Z</time>
      </trkpt>
      <trkpt lat="43.60159" lon="6.6316">
        <ele>-49</ele>
        <time>2011-01-31T08:17:37Z</time>
      </trkpt>
      <trkpt lat="43.60175" lon="6.63157">
        <ele>-49</ele>
        <time>2011-01-31T08:17:39Z</time>
      </trkpt>
      <trkpt lat="43.60161" lon="6.63168">
        <ele>-49</ele>
        <time>2011-01-31T08:17:40Z</time>
      </trkpt>
      <trkpt lat="43.60166" lon="6.63149">
        <ele>-49</ele>
        <time>2011-01-31T08:17:41Z</time>
      </trkpt>
      <trkpt lat="43.60145" lon="6.63179">
        <ele>-49</ele>
        <time>2011-01-31T08:17:42Z</time>
      </trkpt>
      <trkpt lat="43.60172" lon="6.63155">
        <ele>-49</ele>
        <time>2011-01-31T08:17:44Z</time>
      </trkpt>
      <trkpt lat="43.6018" lon="6.63138">
        <ele>-49</ele>
        <time>2011-01-31T08:17:44Z</time>
      </trkpt>
      <trkpt lat="43.60176" lon="6.6317">
        <ele>-49</ele>
        <time>2011-01-31T08:17:47Z</time>
      </trkpt>
      <trkpt lat="43.60162" lon="6.63159">
        <ele>-49</ele>
        <time>2011-01-31T08:17:48Z</time>
      </trkpt>
      <trkpt lat="43.60174" lon="6.63153">
        <ele>-49</ele>
        <time>2011-01-31T08:17:51Z</time>
      </trkpt>
      <trkpt lat="43.60163" lon="6.63173">
        <ele>-49</ele>
        <time>2011-01-31T08:17:52Z</time>
      </trkpt>
      <trkpt lat="43.6018" lon="6.63171">
        <ele>-49</ele>
        <time>2011-01-31T08:17:52Z</time>
      </trkpt>
      <trkpt lat="43.60192" lon="6.6315">
        <ele>-49</ele>
        <time>2011-01-31T08:17:55Z</time>
      </trkpt>
      <trkpt lat="43.60183" lon="6.63157">
        <ele>-49</ele>
        <time>2011-01-31T08:17:56Z</time>
      </trkpt>
      <trkpt lat="43.60191" lon="6.63118">
        <ele>-49</ele>
        <time>2011-01-31T08:17:58Z</time>
      </trkpt>
      <trkpt lat="43.60179" lon="6.63155">
        <ele>-49</ele>
        <time>2011-01-31T08:17:59Z</time>
      </trkpt>
      <trkpt lat="43.60198" lon="6.63139">
        <ele>-49</ele>
        <time>2011-01-31T08:18:01Z</time>
      </trkpt>
      <trkpt lat="43.60193" lon="6.6316">
        <ele>-49</ele>
        <time>2011-01-31T08:18:01Z</time>
      </trkpt>
      <trkpt lat="43.60195" lon="6.63144">
        <ele>-49</ele>
        <time>2011-01-31T08:18:04Z</time>
      </trkpt>
      <trkpt lat="43.60182" lon="6.63156">
        <ele>-49</ele>
        <time>2011-01-31T08:18:06Z</time>
      </trkpt>
      <trkpt lat="43.602" lon="6.63136">
        <ele>-49</ele>
        <time>2011-01-31T08:18:07Z</time>
      </trkpt>
      <trkpt lat="43.60185" lon="6.63136">
        <ele>-49</ele>
        <time>2011-01-31T08:18:08Z</time>
      </trkpt>
      <trkpt lat="43.60194" lon="6.63138">
        <ele>-49</ele>
        <time>2011-01-31T08:18:10Z</time>
      </trkpt>
      <trkpt lat="43.60193" lon="6.63164">
        <ele>-49</ele>
        <time>2011-01-31T08:18:10Z</time>
      </trkpt>
      <trkpt lat="43.60195" lon="6.63149">
        <ele>-49</ele>
        <time>2011-01-31T08:18:12Z</time>
      </trkpt>
      <trkpt lat="43.60203" lon="6.63124">
        <ele>-49</ele>
        <time>2011-01-31T08:18:13Z</time>
      </trkpt>
      <trkpt lat="43.60204" lon="6.63137">
        <ele>-49</ele>
        <time>2011-01-31T08:18:15Z</time>
      </trkpt>
      <trkpt lat="43.60207" lon="6.63114">
        <ele>-49</ele>
        <time>2011-01-31T08:18:16Z</time>
      </trkpt>
      <trkpt lat="43.60202" lon="6.63144">
        <ele>-49</ele>
        <time>2011-01-31T08:18:17Z</time>
      </trkpt>
      <trkpt lat="43.60184" lon="6.63151">
        <ele>-49</ele>
        <time>2011-01-31T08:18:22Z</time>
      </trkpt>
      <trkpt lat="43.60215" lon="6.63141">
        <ele>-49</ele>
        <time>2011-01-31T08:18:24Z</time>
      </trkpt>
      <trkpt lat="43.60202" lon="6.63124">
        <ele>-49</ele>
        <time>2011-01-31T08:18:24Z</time>
      </trkpt>
      <trkpt lat="43.60212" lon="6.63121">
        <ele>-49</ele>
        <time>2011-01-31T08:18:25Z</time>
      </trkpt>
      <trkpt lat="43.60198" lon="6.63137">
        <ele>-49</ele>
        <time>2011-01-31T08:18:30Z</time>
      </trkpt>
      <trkpt lat="43.60209" lon="6.6313">
        <ele>-49</ele>
        <time>2011-01-31T08:18:31Z</time>
      </trkpt>
      <trkpt lat="43.6022" lon="6.63123">
        <ele>-49</ele>
        <time>2011-01-31T08:18:36Z</time>
      </trkpt>
      <trkpt lat="43.60224" lon="6.63136">
        <ele>-49</ele>
        <time>2011-01-31T08:18:38Z</time>
      </trkpt>
      <trkpt lat="43.60221" lon="6.6311">
        <ele>-49</ele>
        <time>2011-01-31T08:18:39Z</time>
      </trkpt>
      <trkpt lat="43.60216" lon="6.63133">
        <ele>-49</ele>
        <time>2011-01-31T08:18:40Z</time>
      </trkpt>
      <trkpt lat="43.60226" lon="6.63121">
        <ele>-49</ele>
        <time>2011-01-31T08:18:41Z</time>
      </trkpt>
      <trkpt lat="43.60215" lon="6.63128">
        <ele>-49</ele>
        <time>2011-01-31T08:18:43Z</time>
      </trkpt>
      <trkpt lat="43.6022" lon="6.63118">
        <ele>-49</ele>
        <time>2011-01-31T08:18:44Z</time>
      </trkpt>
      <trkpt lat="43.60231" lon="6.63098">
        <ele>-49</ele>
        <time>2011-01-31T08:18:46Z</time>
      </trkpt>
      <trkpt lat="43.60223" lon="6.63124">
        <ele>-49</ele>
        <time>2011-01-31T08:18:47Z</time>
      </trkpt>
      <trkpt lat="43.60245" lon="6.63112">
        <ele>-49</ele>
        <time>2011-01-31T08:18:56Z</time>
      </trkpt>
      <trkpt lat="43.60233" lon="6.63121">
        <ele>-49</ele>
        <time>2011-01-31T08:18:58Z</time>
      </trkpt>
      <trkpt lat="43.6022" lon="6.63137">
        <ele>-49</ele>
        <time>2011-01-31T08:18:59Z</time>
      </trkpt>
      <trkpt lat="43.60229" lon="6.63125">
        <ele>-49</ele>
        <time>2011-01-31T08:19:00Z</time>
      </trkpt>
      <trkpt lat="43.60245" lon="6.63121">
        <ele>-49</ele>
        <time>2011-01-31T08:19:04Z</time>
      </trkpt>
      <trkpt lat="43.60226" lon="6.63118">
        <ele>-49</ele>
        <time>2011-01-31T08:19:13Z</time>
      </trkpt>
      <trkpt lat="43.60248" lon="6.63095">
        <ele>-49</ele>
        <time>2011-01-31T08:19:15Z</time>
      </trkpt>
      <trkpt lat="43.60245" lon="6.63119">
        <ele>-49</ele>
        <time>2011-01-31T08:19:16Z</time>
      </trkpt>
      <trkpt lat="43.60257" lon="6.63121">
        <ele>-49</ele>
        <time>2011-01-31T08:19:19Z</time>
      </trkpt>
      <trkpt lat="43.60244" lon="6.63104">
        <ele>-49</ele>
        <time>2011-01-31T08:19:20Z</time>
      </trkpt>
      <trkpt lat="43.60247" lon="6.63121">
        <ele>-49</ele>
        <time>2011-01-31T08:19:20Z</time>
      </trkpt>
      <trkpt lat="43.60251" lon="6.63105">
        <ele>-49</ele>
        <time>2011-01-31T08:19:23Z</time>
      </trkpt>
      <trkpt lat="43.60241" lon="6.63119">
        <ele>-49</ele>
        <time>2011-01-31T08:19:27Z</time>
      </trkpt>
      <trkpt lat="43.60253" lon="6.63119">
        <ele>-49</ele>
        <time>2011-01-31T08:19:27Z</time>
      </trkpt>
      <trkpt lat="43.60244" lon="6.6313">
        <ele>-49</ele>
        <time>2011-01-31T08:19:29Z</time>
      </trkpt>
      <trkpt lat="43.60249" lon="6.6311">
        <ele>-49</ele>
        <time>2011-01-31T08:19:30Z</time>
      </trkpt>
      <trkpt lat="43.60263" lon="6.63093">
        <ele>-49</ele>
        <time>2011-01-31T08:19:35Z</time>
      </trkpt>
      <trkpt lat="43.6027" lon="6.63075">
        <ele>-49</ele>
        <time>2011-01-31T08:19:36Z</time>
      </trkpt>
      <trkpt lat="43.60264" lon="6.63091">
        <ele>-49</ele>
        <time>2011-01-31T08:19:36Z</time>
      </trkpt>
      <trkpt lat="43.60273" lon="6.63076">
        <ele>-49</ele>
        <time>2011-01-31T08:19:42Z</time>
      </trkpt>
      <trkpt lat="43.60269" lon="6.63091">
        <ele>-49</ele>
        <time>2011-01-31T08:19:43Z</time>
      </trkpt>
      <trkpt lat="43.60261" lon="6.63102">
        <ele>-49</ele>
        <time>2011-01-31T08:19:45Z</time>
      </trkpt>
      <trkpt lat="43.60265" lon="6.63087">
        <ele>-49</ele>
        <time>2011-01-31T08:19:46Z</time>
      </trkpt>
      <trkpt lat="43.60261" lon="6.63115">
        <ele>-49</ele>
        <time>2011-01-31T08:19:47Z</time>
      </trkpt>
      <trkpt lat="43.60276" lon="6.63086">
        <ele>-49</ele>
        <time>2011-01-31T08:19:50Z</time>
      </trkpt>
      <trkpt lat="43.60269" lon="6.63093">
        <ele>-49</ele>
        <time>2011-01-31T08:19:51Z</time>
      </trkpt>
      <trkpt lat="43.60272" lon="6.6308">
        <ele>-49</ele>
        <time>2011-01-31T08:20:17Z</time>
      </trkpt>
      <trkpt lat="43.60277" lon="6.63068">
        <ele>-49</ele>
        <time>2011-01-31T08:20:22Z</time>
      </trkpt>
      <trkpt lat="43.60283" lon="6.63056">
        <ele>-49</ele>
        <time>2011-01-31T08:20:39Z</time>
      </trkpt>
      <trkpt lat="43.60287" lon="6.63044">
        <ele>-49</ele>
        <time>2011-01-31T08:20:48Z</time>
      </trkpt>
      <trkpt lat="43.60295" lon="6.6303">
        <ele>-49</ele>
        <time>2011-01-31T08:20:57Z</time>
      </trkpt>
      <trkpt lat="43.60303" lon="6.63022">
        <ele>-49</ele>
        <time>2011-01-31T08:21:04Z</time>
      </trkpt>
      <trkpt lat="43.603" lon="6.63035">
        <ele>-44</ele>
        <time>2011-01-31T08:21:19Z</time>
      </trkpt>
      <trkpt lat="43.60309" lon="6.63028">
        <ele>-44</ele>
        <time>2011-01-31T08:21:23Z</time>
      </trkpt>
      <trkpt lat="43.60317" lon="6.63015">
        <ele>-44</ele>
        <time>2011-01-31T08:21:30Z</time>
      </trkpt>
      <trkpt lat="43.60327" lon="6.63008">
        <ele>-38</ele>
        <time>2011-01-31T08:21:44Z</time>
      </trkpt>
      <trkpt lat="43.60336" lon="6.62999">
        <ele>-38</ele>
        <time>2011-01-31T08:21:52Z</time>
      </trkpt>
      <trkpt lat="43.60345" lon="6.62997">
        <ele>-38</ele>
        <time>2011-01-31T08:22:01Z</time>
      </trkpt>
      <trkpt lat="43.60352" lon="6.62988">
        <ele>-38</ele>
        <time>2011-01-31T08:22:09Z</time>
      </trkpt>
      <trkpt lat="43.60362" lon="6.62988">
        <ele>-30</ele>
        <time>2011-01-31T08:22:31Z</time>
      </trkpt>
      <trkpt lat="43.60373" lon="6.62979">
        <ele>-30</ele>
        <time>2011-01-31T08:22:38Z</time>
      </trkpt>
      <trkpt lat="43.60383" lon="6.62972">
        <ele>-30</ele>
        <time>2011-01-31T08:22:44Z</time>
      </trkpt>
      <trkpt lat="43.60394" lon="6.62968">
        <ele>-22</ele>
        <time>2011-01-31T08:22:55Z</time>
      </trkpt>
      <trkpt lat="43.604" lon="6.62959">
        <ele>-22</ele>
        <time>2011-01-31T08:23:01Z</time>
      </trkpt>
      <trkpt lat="43.60397" lon="6.62972">
        <ele>-22</ele>
        <time>2011-01-31T08:23:03Z</time>
      </trkpt>
      <trkpt lat="43.60407" lon="6.62966">
        <ele>-16</ele>
        <time>2011-01-31T08:23:11Z</time>
      </trkpt>
      <trkpt lat="43.60416" lon="6.62956">
        <ele>-16</ele>
        <time>2011-01-31T08:23:15Z</time>
      </trkpt>
      <trkpt lat="43.60426" lon="6.62953">
        <ele>-16</ele>
        <time>2011-01-31T08:23:32Z</time>
      </trkpt>
      <trkpt lat="43.60435" lon="6.62949">
        <ele>-16</ele>
        <time>2011-01-31T08:23:40Z</time>
      </trkpt>
      <trkpt lat="43.60445" lon="6.62962">
        <ele>-5</ele>
        <time>2011-01-31T08:23:52Z</time>
      </trkpt>
      <trkpt lat="43.60451" lon="6.62952">
        <ele>-5</ele>
        <time>2011-01-31T08:23:55Z</time>
      </trkpt>
      <trkpt lat="43.60451" lon="6.62967">
        <ele>-5</ele>
        <time>2011-01-31T08:23:58Z</time>
      </trkpt>
      <trkpt lat="43.6046" lon="6.62959">
        <ele>1</ele>
        <time>2011-01-31T08:24:03Z</time>
      </trkpt>
      <trkpt lat="43.60465" lon="6.62946">
        <ele>1</ele>
        <time>2011-01-31T08:24:07Z</time>
      </trkpt>
      <trkpt lat="43.60477" lon="6.62944">
        <ele>1</ele>
        <time>2011-01-31T08:24:16Z</time>
      </trkpt>
      <trkpt lat="43.6048" lon="6.62932">
        <ele>1</ele>
        <time>2011-01-31T08:24:22Z</time>
      </trkpt>
      <trkpt lat="43.6049" lon="6.6293">
        <ele>10</ele>
        <time>2011-01-31T08:24:33Z</time>
      </trkpt>
      <trkpt lat="43.60491" lon="6.62942">
        <ele>10</ele>
        <time>2011-01-31T08:24:53Z</time>
      </trkpt>
      <trkpt lat="43.60501" lon="6.6294">
        <ele>20</ele>
        <time>2011-01-31T08:24:59Z</time>
      </trkpt>
      <trkpt lat="43.60509" lon="6.62933">
        <ele>20</ele>
        <time>2011-01-31T08:25:04Z</time>
      </trkpt>
      <trkpt lat="43.60517" lon="6.62928">
        <ele>26</ele>
        <time>2011-01-31T08:25:11Z</time>
      </trkpt>
      <trkpt lat="43.60526" lon="6.62924">
        <ele>26</ele>
        <time>2011-01-31T08:25:15Z</time>
      </trkpt>
      <trkpt lat="43.60533" lon="6.62918">
        <ele>33</ele>
        <time>2011-01-31T08:25:19Z</time>
      </trkpt>
      <trkpt lat="43.60543" lon="6.6292">
        <ele>40</ele>
        <time>2011-01-31T08:25:30Z</time>
      </trkpt>
      <trkpt lat="43.60552" lon="6.62914">
        <ele>40</ele>
        <time>2011-01-31T08:25:36Z</time>
      </trkpt>
      <trkpt lat="43.60562" lon="6.62912">
        <ele>46</ele>
        <time>2011-01-31T08:25:43Z</time>
      </trkpt>
      <trkpt lat="43.60576" lon="6.62903">
        <ele>56</ele>
        <time>2011-01-31T08:25:58Z</time>
      </trkpt>
      <trkpt lat="43.60579" lon="6.62915">
        <ele>66</ele>
        <time>2011-01-31T08:26:09Z</time>
      </trkpt>
      <trkpt lat="43.60586" lon="6.62906">
        <ele>66</ele>
        <time>2011-01-31T08:26:23Z</time>
      </trkpt>
      <trkpt lat="43.60596" lon="6.62897">
        <ele>72</ele>
        <time>2011-01-31T08:26:27Z</time>
      </trkpt>
      <trkpt lat="43.60605" lon="6.629">
        <ele>79</ele>
        <time>2011-01-31T08:26:35Z</time>
      </trkpt>
      <trkpt lat="43.60614" lon="6.62895">
        <ele>79</ele>
        <time>2011-01-31T08:26:38Z</time>
      </trkpt>
      <trkpt lat="43.60616" lon="6.62907">
        <ele>86</ele>
        <time>2011-01-31T08:26:43Z</time>
      </trkpt>
      <trkpt lat="43.60628" lon="6.62907">
        <ele>86</ele>
        <time>2011-01-31T08:26:55Z</time>
      </trkpt>
      <trkpt lat="43.60637" lon="6.62909">
        <ele>93</ele>
        <time>2011-01-31T08:27:01Z</time>
      </trkpt>
      <trkpt lat="43.60637" lon="6.62923">
        <ele>100</ele>
        <time>2011-01-31T08:27:15Z</time>
      </trkpt>
      <trkpt lat="43.60646" lon="6.62922">
        <ele>107</ele>
        <time>2011-01-31T08:27:27Z</time>
      </trkpt>
      <trkpt lat="43.60655" lon="6.62921">
        <ele>114</ele>
        <time>2011-01-31T08:27:35Z</time>
      </trkpt>
      <trkpt lat="43.60667" lon="6.62918">
        <ele>119</ele>
        <time>2011-01-31T08:27:44Z</time>
      </trkpt>
      <trkpt lat="43.60676" lon="6.62914">
        <ele>119</ele>
        <time>2011-01-31T08:27:49Z</time>
      </trkpt>
      <trkpt lat="43.60685" lon="6.62914">
        <ele>125</ele>
        <time>2011-01-31T08:27:56Z</time>
      </trkpt>
      <trkpt lat="43.60695" lon="6.62921">
        <ele>130</ele>
        <time>2011-01-31T08:28:08Z</time>
      </trkpt>
      <trkpt lat="43.60702" lon="6.62928">
        <ele>143</ele>
        <time>2011-01-31T08:28:19Z</time>
      </trkpt>
      <trkpt lat="43.60711" lon="6.62923">
        <ele>150</ele>
        <time>2011-01-31T08:28:24Z</time>
      </trkpt>
      <trkpt lat="43.60711" lon="6.62936">
        <ele>155</ele>
        <time>2011-01-31T08:28:31Z</time>
      </trkpt>
      <trkpt lat="43.60717" lon="6.62926">
        <ele>161</ele>
        <time>2011-01-31T08:28:48Z</time>
      </trkpt>
      <trkpt lat="43.60725" lon="6.62918">
        <ele>161</ele>
        <time>2011-01-31T08:28:51Z</time>
      </trkpt>
      <trkpt lat="43.60732" lon="6.62907">
        <ele>161</ele>
        <time>2011-01-31T08:28:58Z</time>
      </trkpt>
      <trkpt lat="43.60725" lon="6.62914">
        <ele>161</ele>
        <time>2011-01-31T08:29:03Z</time>
      </trkpt>
      <trkpt lat="43.60729" lon="6.62895">
        <ele>161</ele>
        <time>2011-01-31T08:29:17Z</time>
      </trkpt>
      <trkpt lat="43.60736" lon="6.62882">
        <ele>161</ele>
        <time>2011-01-31T08:29:19Z</time>
      </trkpt>
      <trkpt lat="43.60737" lon="6.62897">
        <ele>168</ele>
        <time>2011-01-31T08:29:32Z</time>
      </trkpt>
      <trkpt lat="43.60732" lon="6.62912">
        <ele>168</ele>
        <time>2011-01-31T08:29:35Z</time>
      </trkpt>
      <trkpt lat="43.6073" lon="6.62931">
        <ele>168</ele>
        <time>2011-01-31T08:29:39Z</time>
      </trkpt>
      <trkpt lat="43.60726" lon="6.6295">
        <ele>168</ele>
        <time>2011-01-31T08:29:41Z</time>
      </trkpt>
      <trkpt lat="43.60719" lon="6.62967">
        <ele>161</ele>
        <time>2011-01-31T08:29:43Z</time>
      </trkpt>
      <trkpt lat="43.6071" lon="6.62971">
        <ele>161</ele>
        <time>2011-01-31T08:29:45Z</time>
      </trkpt>
      <trkpt lat="43.60716" lon="6.62953">
        <ele>161</ele>
        <time>2011-01-31T08:29:51Z</time>
      </trkpt>
      <trkpt lat="43.60722" lon="6.62941">
        <ele>167</ele>
        <time>2011-01-31T08:29:57Z</time>
      </trkpt>
      <trkpt lat="43.60729" lon="6.62929">
        <ele>167</ele>
        <time>2011-01-31T08:30:01Z</time>
      </trkpt>
      <trkpt lat="43.60729" lon="6.62942">
        <ele>181</ele>
        <time>2011-01-31T08:30:12Z</time>
      </trkpt>
      <trkpt lat="43.60742" lon="6.62943">
        <ele>193</ele>
        <time>2011-01-31T08:30:39Z</time>
      </trkpt>
      <trkpt lat="43.60753" lon="6.62941">
        <ele>198</ele>
        <time>2011-01-31T08:30:47Z</time>
      </trkpt>
      <trkpt lat="43.60759" lon="6.62928">
        <ele>198</ele>
        <time>2011-01-31T08:30:49Z</time>
      </trkpt>
      <trkpt lat="43.60766" lon="6.62936">
        <ele>204</ele>
        <time>2011-01-31T08:31:03Z</time>
      </trkpt>
      <trkpt lat="43.60776" lon="6.62925">
        <ele>204</ele>
        <time>2011-01-31T08:31:09Z</time>
      </trkpt>
      <trkpt lat="43.60772" lon="6.62939">
        <ele>204</ele>
        <time>2011-01-31T08:31:12Z</time>
      </trkpt>
      <trkpt lat="43.60781" lon="6.62928">
        <ele>211</ele>
        <time>2011-01-31T08:31:19Z</time>
      </trkpt>
      <trkpt lat="43.6079" lon="6.62921">
        <ele>211</ele>
        <time>2011-01-31T08:31:31Z</time>
      </trkpt>
      <trkpt lat="43.60798" lon="6.6291">
        <ele>217</ele>
        <time>2011-01-31T08:31:36Z</time>
      </trkpt>
      <trkpt lat="43.60805" lon="6.62902">
        <ele>217</ele>
        <time>2011-01-31T08:31:39Z</time>
      </trkpt>
      <trkpt lat="43.60815" lon="6.6289">
        <ele>217</ele>
        <time>2011-01-31T08:31:46Z</time>
      </trkpt>
      <trkpt lat="43.60824" lon="6.62888">
        <ele>225</ele>
        <time>2011-01-31T08:32:14Z</time>
      </trkpt>
      <trkpt lat="43.60832" lon="6.62881">
        <ele>225</ele>
        <time>2011-01-31T08:32:24Z</time>
      </trkpt>
      <trkpt lat="43.60836" lon="6.6287">
        <ele>225</ele>
        <time>2011-01-31T08:32:26Z</time>
      </trkpt>
      <trkpt lat="43.60843" lon="6.6286">
        <ele>233</ele>
        <time>2011-01-31T08:32:33Z</time>
      </trkpt>
      <trkpt lat="43.60852" lon="6.62854">
        <ele>233</ele>
        <time>2011-01-31T08:32:48Z</time>
      </trkpt>
      <trkpt lat="43.60859" lon="6.62844">
        <ele>240</ele>
        <time>2011-01-31T08:32:53Z</time>
      </trkpt>
      <trkpt lat="43.60868" lon="6.62835">
        <ele>246</ele>
        <time>2011-01-31T08:33:17Z</time>
      </trkpt>
      <trkpt lat="43.60873" lon="6.62826">
        <ele>246</ele>
        <time>2011-01-31T08:33:21Z</time>
      </trkpt>
      <trkpt lat="43.6087" lon="6.62837">
        <ele>246</ele>
        <time>2011-01-31T08:33:27Z</time>
      </trkpt>
      <trkpt lat="43.60862" lon="6.62847">
        <ele>246</ele>
        <time>2011-01-31T08:33:29Z</time>
      </trkpt>
      <trkpt lat="43.60862" lon="6.6286">
        <ele>246</ele>
        <time>2011-01-31T08:33:34Z</time>
      </trkpt>
      <trkpt lat="43.60868" lon="6.62849">
        <ele>246</ele>
        <time>2011-01-31T08:33:36Z</time>
      </trkpt>
      <trkpt lat="43.60875" lon="6.62836">
        <ele>246</ele>
        <time>2011-01-31T08:33:39Z</time>
      </trkpt>
      <trkpt lat="43.6088" lon="6.62824">
        <ele>246</ele>
        <time>2011-01-31T08:33:46Z</time>
      </trkpt>
      <trkpt lat="43.60887" lon="6.62812">
        <ele>246</ele>
        <time>2011-01-31T08:33:50Z</time>
      </trkpt>
      <trkpt lat="43.60896" lon="6.62795">
        <ele>246</ele>
        <time>2011-01-31T08:33:53Z</time>
      </trkpt>
      <trkpt lat="43.60903" lon="6.62787">
        <ele>246</ele>
        <time>2011-01-31T08:33:57Z</time>
      </trkpt>
      <trkpt lat="43.60913" lon="6.62786">
        <ele>251</ele>
        <time>2011-01-31T08:34:06Z</time>
      </trkpt>
      <trkpt lat="43.60915" lon="6.62798">
        <ele>260</ele>
        <time>2011-01-31T08:34:19Z</time>
      </trkpt>
      <trkpt lat="43.60923" lon="6.62783">
        <ele>260</ele>
        <time>2011-01-31T08:34:30Z</time>
      </trkpt>
      <trkpt lat="43.60932" lon="6.62775">
        <ele>260</ele>
        <time>2011-01-31T08:34:38Z</time>
      </trkpt>
      <trkpt lat="43.60937" lon="6.62765">
        <ele>260</ele>
        <time>2011-01-31T08:34:44Z</time>
      </trkpt>
      <trkpt lat="43.60943" lon="6.62751">
        <ele>260</ele>
        <time>2011-01-31T08:34:50Z</time>
      </trkpt>
      <trkpt lat="43.6095" lon="6.62742">
        <ele>269</ele>
        <time>2011-01-31T08:35:06Z</time>
      </trkpt>
      <trkpt lat="43.60952" lon="6.62728">
        <ele>269</ele>
        <time>2011-01-31T08:35:15Z</time>
      </trkpt>
      <trkpt lat="43.60962" lon="6.62721">
        <ele>269</ele>
        <time>2011-01-31T08:35:27Z</time>
      </trkpt>
      <trkpt lat="43.60971" lon="6.62714">
        <ele>269</ele>
        <time>2011-01-31T08:35:39Z</time>
      </trkpt>
      <trkpt lat="43.60981" lon="6.62718">
        <ele>269</ele>
        <time>2011-01-31T08:35:57Z</time>
      </trkpt>
      <trkpt lat="43.60988" lon="6.62711">
        <ele>278</ele>
        <time>2011-01-31T08:36:03Z</time>
      </trkpt>
      <trkpt lat="43.60994" lon="6.62696">
        <ele>283</ele>
        <time>2011-01-31T08:36:10Z</time>
      </trkpt>
      <trkpt lat="43.61001" lon="6.62689">
        <ele>283</ele>
        <time>2011-01-31T08:36:19Z</time>
      </trkpt>
      <trkpt lat="43.6101" lon="6.62683">
        <ele>283</ele>
        <time>2011-01-31T08:36:33Z</time>
      </trkpt>
      <trkpt lat="43.61018" lon="6.62673">
        <ele>292</ele>
        <time>2011-01-31T08:36:40Z</time>
      </trkpt>
      <trkpt lat="43.61029" lon="6.62661">
        <ele>292</ele>
        <time>2011-01-31T08:37:00Z</time>
      </trkpt>
      <trkpt lat="43.61038" lon="6.62649">
        <ele>298</ele>
        <time>2011-01-31T08:37:05Z</time>
      </trkpt>
      <trkpt lat="43.61046" lon="6.62639">
        <ele>305</ele>
        <time>2011-01-31T08:37:17Z</time>
      </trkpt>
      <trkpt lat="43.61054" lon="6.62631">
        <ele>311</ele>
        <time>2011-01-31T08:37:33Z</time>
      </trkpt>
      <trkpt lat="43.61057" lon="6.62619">
        <ele>311</ele>
        <time>2011-01-31T08:37:37Z</time>
      </trkpt>
      <trkpt lat="43.6105" lon="6.62631">
        <ele>311</ele>
        <time>2011-01-31T08:37:40Z</time>
      </trkpt>
      <trkpt lat="43.61057" lon="6.6262">
        <ele>311</ele>
        <time>2011-01-31T08:37:56Z</time>
      </trkpt>
      <trkpt lat="43.61065" lon="6.62614">
        <ele>311</ele>
        <time>2011-01-31T08:38:22Z</time>
      </trkpt>
      <trkpt lat="43.6107" lon="6.62602">
        <ele>311</ele>
        <time>2011-01-31T08:38:26Z</time>
      </trkpt>
      <trkpt lat="43.61078" lon="6.62591">
        <ele>311</ele>
        <time>2011-01-31T08:38:29Z</time>
      </trkpt>
      <trkpt lat="43.61083" lon="6.62577">
        <ele>317</ele>
        <time>2011-01-31T08:38:38Z</time>
      </trkpt>
      <trkpt lat="43.61089" lon="6.62566">
        <ele>317</ele>
        <time>2011-01-31T08:38:40Z</time>
      </trkpt>
      <trkpt lat="43.61094" lon="6.62556">
        <ele>317</ele>
        <time>2011-01-31T08:38:52Z</time>
      </trkpt>
      <trkpt lat="43.61099" lon="6.62544">
        <ele>317</ele>
        <time>2011-01-31T08:39:07Z</time>
      </trkpt>
      <trkpt lat="43.61107" lon="6.62535">
        <ele>317</ele>
        <time>2011-01-31T08:39:17Z</time>
      </trkpt>
      <trkpt lat="43.61112" lon="6.62522">
        <ele>317</ele>
        <time>2011-01-31T08:39:25Z</time>
      </trkpt>
      <trkpt lat="43.61118" lon="6.62512">
        <ele>317</ele>
        <time>2011-01-31T08:39:35Z</time>
      </trkpt>
      <trkpt lat="43.61122" lon="6.62498">
        <ele>317</ele>
        <time>2011-01-31T08:39:46Z</time>
      </trkpt>
      <trkpt lat="43.61127" lon="6.62482">
        <ele>327</ele>
        <time>2011-01-31T08:40:06Z</time>
      </trkpt>
      <trkpt lat="43.61134" lon="6.62468">
        <ele>327</ele>
        <time>2011-01-31T08:40:08Z</time>
      </trkpt>
      <trkpt lat="43.61138" lon="6.62454">
        <ele>333</ele>
        <time>2011-01-31T08:40:17Z</time>
      </trkpt>
      <trkpt lat="43.61142" lon="6.62443">
        <ele>333</ele>
        <time>2011-01-31T08:40:24Z</time>
      </trkpt>
      <trkpt lat="43.61139" lon="6.62431">
        <ele>333</ele>
        <time>2011-01-31T08:40:36Z</time>
      </trkpt>
      <trkpt lat="43.61146" lon="6.62411">
        <ele>333</ele>
        <time>2011-01-31T08:40:53Z</time>
      </trkpt>
      <trkpt lat="43.61141" lon="6.62422">
        <ele>333</ele>
        <time>2011-01-31T08:40:57Z</time>
      </trkpt>
      <trkpt lat="43.61147" lon="6.62409">
        <ele>333</ele>
        <time>2011-01-31T08:41:15Z</time>
      </trkpt>
      <trkpt lat="43.61152" lon="6.62399">
        <ele>333</ele>
        <time>2011-01-31T08:41:22Z</time>
      </trkpt>
      <trkpt lat="43.61158" lon="6.62383">
        <ele>333</ele>
        <time>2011-01-31T08:41:27Z</time>
      </trkpt>
      <trkpt lat="43.61162" lon="6.62368">
        <ele>333</ele>
        <time>2011-01-31T08:41:29Z</time>
      </trkpt>
      <trkpt lat="43.6117" lon="6.6236">
        <ele>344</ele>
        <time>2011-01-31T08:41:35Z</time>
      </trkpt>
      <trkpt lat="43.61178" lon="6.62346">
        <ele>344</ele>
        <time>2011-01-31T08:41:37Z</time>
      </trkpt>
      <trkpt lat="43.61183" lon="6.62335">
        <ele>344</ele>
        <time>2011-01-31T08:41:42Z</time>
      </trkpt>
      <trkpt lat="43.61177" lon="6.62346">
        <ele>338</ele>
        <time>2011-01-31T08:41:45Z</time>
      </trkpt>
      <trkpt lat="43.61182" lon="6.62336">
        <ele>338</ele>
        <time>2011-01-31T08:41:51Z</time>
      </trkpt>
      <trkpt lat="43.61175" lon="6.62346">
        <ele>338</ele>
        <time>2011-01-31T08:41:55Z</time>
      </trkpt>
      <trkpt lat="43.61167" lon="6.62352">
        <ele>338</ele>
        <time>2011-01-31T08:42:00Z</time>
      </trkpt>
      <trkpt lat="43.61163" lon="6.62367">
        <ele>338</ele>
        <time>2011-01-31T08:42:02Z</time>
      </trkpt>
      <trkpt lat="43.61165" lon="6.62384">
        <ele>338</ele>
        <time>2011-01-31T08:42:04Z</time>
      </trkpt>
      <trkpt lat="43.61167" lon="6.62396">
        <ele>358</ele>
        <time>2011-01-31T08:42:14Z</time>
      </trkpt>
      <trkpt lat="43.61162" lon="6.62409">
        <ele>358</ele>
        <time>2011-01-31T08:42:17Z</time>
      </trkpt>
      <trkpt lat="43.61161" lon="6.62422">
        <ele>358</ele>
        <time>2011-01-31T08:42:24Z</time>
      </trkpt>
      <trkpt lat="43.61155" lon="6.62434">
        <ele>364</ele>
        <time>2011-01-31T08:42:27Z</time>
      </trkpt>
      <trkpt lat="43.61157" lon="6.62419">
        <ele>370</ele>
        <time>2011-01-31T08:42:38Z</time>
      </trkpt>
      <trkpt lat="43.61165" lon="6.62407">
        <ele>370</ele>
        <time>2011-01-31T08:42:40Z</time>
      </trkpt>
      <trkpt lat="43.61158" lon="6.62398">
        <ele>370</ele>
        <time>2011-01-31T08:42:57Z</time>
      </trkpt>
      <trkpt lat="43.61169" lon="6.62388">
        <ele>361</ele>
        <time>2011-01-31T08:43:08Z</time>
      </trkpt>
      <trkpt lat="43.61174" lon="6.62378">
        <ele>361</ele>
        <time>2011-01-31T08:43:09Z</time>
      </trkpt>
      <trkpt lat="43.61183" lon="6.62364">
        <ele>361</ele>
        <time>2011-01-31T08:43:11Z</time>
      </trkpt>
      <trkpt lat="43.6118" lon="6.62376">
        <ele>374</ele>
        <time>2011-01-31T08:43:22Z</time>
      </trkpt>
      <trkpt lat="43.61171" lon="6.62373">
        <ele>379</ele>
        <time>2011-01-31T08:43:32Z</time>
      </trkpt>
      <trkpt lat="43.61166" lon="6.62383">
        <ele>379</ele>
        <time>2011-01-31T08:43:37Z</time>
      </trkpt>
      <trkpt lat="43.61168" lon="6.62395">
        <ele>373</ele>
        <time>2011-01-31T08:43:42Z</time>
      </trkpt>
      <trkpt lat="43.61176" lon="6.62384">
        <ele>373</ele>
        <time>2011-01-31T08:43:46Z</time>
      </trkpt>
      <trkpt lat="43.61172" lon="6.62399">
        <ele>359</ele>
        <time>2011-01-31T08:43:56Z</time>
      </trkpt>
      <trkpt lat="43.61168" lon="6.62411">
        <ele>359</ele>
        <time>2011-01-31T08:43:58Z</time>
      </trkpt>
      <trkpt lat="43.61172" lon="6.624">
        <ele>359</ele>
        <time>2011-01-31T08:44:03Z</time>
      </trkpt>
      <trkpt lat="43.61178" lon="6.62387">
        <ele>351</ele>
        <time>2011-01-31T08:44:06Z</time>
      </trkpt>
      <trkpt lat="43.61183" lon="6.62375">
        <ele>351</ele>
        <time>2011-01-31T08:44:11Z</time>
      </trkpt>
      <trkpt lat="43.61189" lon="6.62366">
        <ele>346</ele>
        <time>2011-01-31T08:44:20Z</time>
      </trkpt>
      <trkpt lat="43.61187" lon="6.6238">
        <ele>346</ele>
        <time>2011-01-31T08:44:22Z</time>
      </trkpt>
      <trkpt lat="43.61198" lon="6.62373">
        <ele>346</ele>
        <time>2011-01-31T08:44:33Z</time>
      </trkpt>
      <trkpt lat="43.61208" lon="6.62368">
        <ele>346</ele>
        <time>2011-01-31T08:44:37Z</time>
      </trkpt>
      <trkpt lat="43.61218" lon="6.62358">
        <ele>346</ele>
        <time>2011-01-31T08:44:57Z</time>
      </trkpt>
      <trkpt lat="43.61219" lon="6.62371">
        <ele>339</ele>
        <time>2011-01-31T08:45:04Z</time>
      </trkpt>
      <trkpt lat="43.61223" lon="6.62357">
        <ele>339</ele>
        <time>2011-01-31T08:45:12Z</time>
      </trkpt>
      <trkpt lat="43.61224" lon="6.62344">
        <ele>339</ele>
        <time>2011-01-31T08:45:15Z</time>
      </trkpt>
      <trkpt lat="43.61219" lon="6.62333">
        <ele>339</ele>
        <time>2011-01-31T08:45:22Z</time>
      </trkpt>
      <trkpt lat="43.6121" lon="6.62326">
        <ele>339</ele>
        <time>2011-01-31T08:45:33Z</time>
      </trkpt>
      <trkpt lat="43.6121" lon="6.62311">
        <ele>339</ele>
        <time>2011-01-31T08:45:36Z</time>
      </trkpt>
      <trkpt lat="43.61206" lon="6.62298">
        <ele>339</ele>
        <time>2011-01-31T08:45:44Z</time>
      </trkpt>
      <trkpt lat="43.61206" lon="6.62285">
        <ele>339</ele>
        <time>2011-01-31T08:45:49Z</time>
      </trkpt>
      <trkpt lat="43.61199" lon="6.62296">
        <ele>333</ele>
        <time>2011-01-31T08:45:53Z</time>
      </trkpt>
      <trkpt lat="43.61193" lon="6.62286">
        <ele>333</ele>
        <time>2011-01-31T08:46:03Z</time>
      </trkpt>
      <trkpt lat="43.61198" lon="6.62268">
        <ele>338</ele>
        <time>2011-01-31T08:46:05Z</time>
      </trkpt>
      <trkpt lat="43.61192" lon="6.62279">
        <ele>338</ele>
        <time>2011-01-31T08:46:07Z</time>
      </trkpt>
      <trkpt lat="43.61183" lon="6.62273">
        <ele>338</ele>
        <time>2011-01-31T08:46:17Z</time>
      </trkpt>
      <trkpt lat="43.61186" lon="6.62259">
        <ele>338</ele>
        <time>2011-01-31T08:46:20Z</time>
      </trkpt>
      <trkpt lat="43.61189" lon="6.62243">
        <ele>338</ele>
        <time>2011-01-31T08:46:29Z</time>
      </trkpt>
      <trkpt lat="43.61185" lon="6.62229">
        <ele>338</ele>
        <time>2011-01-31T08:46:35Z</time>
      </trkpt>
      <trkpt lat="43.61179" lon="6.6224">
        <ele>338</ele>
        <time>2011-01-31T08:46:38Z</time>
      </trkpt>
      <trkpt lat="43.6118" lon="6.62221">
        <ele>338</ele>
        <time>2011-01-31T08:46:43Z</time>
      </trkpt>
      <trkpt lat="43.6118" lon="6.62208">
        <ele>338</ele>
        <time>2011-01-31T08:46:48Z</time>
      </trkpt>
      <trkpt lat="43.6118" lon="6.62193">
        <ele>338</ele>
        <time>2011-01-31T08:46:54Z</time>
      </trkpt>
      <trkpt lat="43.61172" lon="6.62186">
        <ele>338</ele>
        <time>2011-01-31T08:47:04Z</time>
      </trkpt>
      <trkpt lat="43.61172" lon="6.6217">
        <ele>344</ele>
        <time>2011-01-31T08:47:15Z</time>
      </trkpt>
      <trkpt lat="43.61171" lon="6.62154">
        <ele>344</ele>
        <time>2011-01-31T08:47:27Z</time>
      </trkpt>
      <trkpt lat="43.61161" lon="6.62155">
        <ele>339</ele>
        <time>2011-01-31T08:47:30Z</time>
      </trkpt>
      <trkpt lat="43.61162" lon="6.62143">
        <ele>339</ele>
        <time>2011-01-31T08:47:40Z</time>
      </trkpt>
      <trkpt lat="43.61163" lon="6.62128">
        <ele>339</ele>
        <time>2011-01-31T08:47:56Z</time>
      </trkpt>
      <trkpt lat="43.61166" lon="6.62115">
        <ele>352</ele>
        <time>2011-01-31T08:48:12Z</time>
      </trkpt>
      <trkpt lat="43.61159" lon="6.62106">
        <ele>352</ele>
        <time>2011-01-31T08:48:25Z</time>
      </trkpt>
      <trkpt lat="43.61162" lon="6.62093">
        <ele>352</ele>
        <time>2011-01-31T08:48:29Z</time>
      </trkpt>
      <trkpt lat="43.61167" lon="6.62082">
        <ele>352</ele>
        <time>2011-01-31T08:48:33Z</time>
      </trkpt>
      <trkpt lat="43.61163" lon="6.62066">
        <ele>352</ele>
        <time>2011-01-31T08:48:45Z</time>
      </trkpt>
      <trkpt lat="43.61165" lon="6.62052">
        <ele>345</ele>
        <time>2011-01-31T08:48:54Z</time>
      </trkpt>
      <trkpt lat="43.61166" lon="6.62036">
        <ele>345</ele>
        <time>2011-01-31T08:49:09Z</time>
      </trkpt>
      <trkpt lat="43.61167" lon="6.62021">
        <ele>345</ele>
        <time>2011-01-31T08:49:16Z</time>
      </trkpt>
      <trkpt lat="43.61172" lon="6.62003">
        <ele>345</ele>
        <time>2011-01-31T08:49:18Z</time>
      </trkpt>
      <trkpt lat="43.61179" lon="6.61994">
        <ele>359</ele>
        <time>2011-01-31T08:49:39Z</time>
      </trkpt>
      <trkpt lat="43.61176" lon="6.62007">
        <ele>366</ele>
        <time>2011-01-31T08:49:45Z</time>
      </trkpt>
      <trkpt lat="43.61176" lon="6.61994">
        <ele>366</ele>
        <time>2011-01-31T08:49:57Z</time>
      </trkpt>
      <trkpt lat="43.61174" lon="6.62006">
        <ele>379</ele>
        <time>2011-01-31T08:50:14Z</time>
      </trkpt>
      <trkpt lat="43.61182" lon="6.62015">
        <ele>399</ele>
        <time>2011-01-31T08:50:28Z</time>
      </trkpt>
      <trkpt lat="43.61184" lon="6.62003">
        <ele>387</ele>
        <time>2011-01-31T08:50:41Z</time>
      </trkpt>
      <trkpt lat="43.61177" lon="6.61994">
        <ele>365</ele>
        <time>2011-01-31T08:50:50Z</time>
      </trkpt>
      <trkpt lat="43.61175" lon="6.61981">
        <ele>345</ele>
        <time>2011-01-31T08:51:00Z</time>
      </trkpt>
      <trkpt lat="43.61166" lon="6.61974">
        <ele>345</ele>
        <time>2011-01-31T08:51:56Z</time>
      </trkpt>
      <trkpt lat="43.61161" lon="6.61984">
        <ele>358</ele>
        <time>2011-01-31T08:52:30Z</time>
      </trkpt>
      <trkpt lat="43.61153" lon="6.61995">
        <ele>367</ele>
        <time>2011-01-31T08:53:20Z</time>
      </trkpt>
      <trkpt lat="43.61159" lon="6.62005">
        <ele>367</ele>
        <time>2011-01-31T08:53:50Z</time>
      </trkpt>
      <trkpt lat="43.61153" lon="6.61996">
        <ele>367</ele>
        <time>2011-01-31T08:54:09Z</time>
      </trkpt>
      <trkpt lat="43.61158" lon="6.62006">
        <ele>367</ele>
        <time>2011-01-31T08:54:26Z</time>
      </trkpt>
      <trkpt lat="43.61155" lon="6.61995">
        <ele>357</ele>
        <time>2011-01-31T08:55:40Z</time>
      </trkpt>
      <trkpt lat="43.61163" lon="6.62">
        <ele>357</ele>
        <time>2011-01-31T08:56:48Z</time>
      </trkpt>
      <trkpt lat="43.61172" lon="6.61995">
        <ele>362</ele>
        <time>2011-01-31T08:59:39Z</time>
      </trkpt>
      <trkpt lat="43.6118" lon="6.61987">
        <ele>362</ele>
        <time>2011-01-31T08:59:53Z</time>
      </trkpt>
      <trkpt lat="43.61171" lon="6.61985">
        <ele>362</ele>
        <time>2011-01-31T09:00:59Z</time>
      </trkpt>
      <trkpt lat="43.6118" lon="6.61979">
        <ele>362</ele>
        <time>2011-01-31T09:01:24Z</time>
      </trkpt>
      <trkpt lat="43.61184" lon="6.61968">
        <ele>356</ele>
        <time>2011-01-31T09:01:34Z</time>
      </trkpt>
      <trkpt lat="43.61186" lon="6.61954">
        <ele>356</ele>
        <time>2011-01-31T09:01:45Z</time>
      </trkpt>
      <trkpt lat="43.61191" lon="6.61944">
        <ele>356</ele>
        <time>2011-01-31T09:01:56Z</time>
      </trkpt>
      <trkpt lat="43.61195" lon="6.61931">
        <ele>356</ele>
        <time>2011-01-31T09:02:06Z</time>
      </trkpt>
      <trkpt lat="43.61194" lon="6.61918">
        <ele>356</ele>
        <time>2011-01-31T09:02:16Z</time>
      </trkpt>
      <trkpt lat="43.61195" lon="6.61905">
        <ele>356</ele>
        <time>2011-01-31T09:02:26Z</time>
      </trkpt>
      <trkpt lat="43.61199" lon="6.61892">
        <ele>356</ele>
        <time>2011-01-31T09:02:36Z</time>
      </trkpt>
      <trkpt lat="43.61203" lon="6.61881">
        <ele>356</ele>
        <time>2011-01-31T09:02:45Z</time>
      </trkpt>
      <trkpt lat="43.61206" lon="6.61868">
        <ele>356</ele>
        <time>2011-01-31T09:02:54Z</time>
      </trkpt>
      <trkpt lat="43.61208" lon="6.61856">
        <ele>356</ele>
        <time>2011-01-31T09:03:02Z</time>
      </trkpt>
      <trkpt lat="43.6121" lon="6.61844">
        <ele>356</ele>
        <time>2011-01-31T09:03:11Z</time>
      </trkpt>
      <trkpt lat="43.61211" lon="6.61831">
        <ele>356</ele>
        <time>2011-01-31T09:03:20Z</time>
      </trkpt>
      <trkpt lat="43.6121" lon="6.61819">
        <ele>356</ele>
        <time>2011-01-31T09:03:30Z</time>
      </trkpt>
      <trkpt lat="43.61211" lon="6.61805">
        <ele>356</ele>
        <time>2011-01-31T09:03:39Z</time>
      </trkpt>
      <trkpt lat="43.61211" lon="6.61793">
        <ele>356</ele>
        <time>2011-01-31T09:03:47Z</time>
      </trkpt>
      <trkpt lat="43.61208" lon="6.61781">
        <ele>356</ele>
        <time>2011-01-31T09:03:55Z</time>
      </trkpt>
      <trkpt lat="43.61208" lon="6.61767">
        <ele>356</ele>
        <time>2011-01-31T09:04:04Z</time>
      </trkpt>
      <trkpt lat="43.61209" lon="6.61754">
        <ele>356</ele>
        <time>2011-01-31T09:04:13Z</time>
      </trkpt>
      <trkpt lat="43.61208" lon="6.61741">
        <ele>356</ele>
        <time>2011-01-31T09:04:21Z</time>
      </trkpt>
      <trkpt lat="43.61207" lon="6.61729">
        <ele>366</ele>
        <time>2011-01-31T09:04:34Z</time>
      </trkpt>
      <trkpt lat="43.61204" lon="6.61715">
        <ele>366</ele>
        <time>2011-01-31T09:04:43Z</time>
      </trkpt>
      <trkpt lat="43.61202" lon="6.61703">
        <ele>366</ele>
        <time>2011-01-31T09:04:52Z</time>
      </trkpt>
      <trkpt lat="43.61199" lon="6.61691">
        <ele>366</ele>
        <time>2011-01-31T09:05:02Z</time>
      </trkpt>
      <trkpt lat="43.61196" lon="6.61679">
        <ele>366</ele>
        <time>2011-01-31T09:05:11Z</time>
      </trkpt>
      <trkpt lat="43.61193" lon="6.61668">
        <ele>366</ele>
        <time>2011-01-31T09:05:18Z</time>
      </trkpt>
      <trkpt lat="43.61188" lon="6.61656">
        <ele>358</ele>
        <time>2011-01-31T09:05:25Z</time>
      </trkpt>
      <trkpt lat="43.61187" lon="6.61642">
        <ele>358</ele>
        <time>2011-01-31T09:05:33Z</time>
      </trkpt>
      <trkpt lat="43.61186" lon="6.6163">
        <ele>358</ele>
        <time>2011-01-31T09:05:41Z</time>
      </trkpt>
      <trkpt lat="43.61183" lon="6.61618">
        <ele>358</ele>
        <time>2011-01-31T09:05:48Z</time>
      </trkpt>
      <trkpt lat="43.6118" lon="6.61606">
        <ele>364</ele>
        <time>2011-01-31T09:05:58Z</time>
      </trkpt>
      <trkpt lat="43.61176" lon="6.61594">
        <ele>364</ele>
        <time>2011-01-31T09:06:07Z</time>
      </trkpt>
      <trkpt lat="43.61174" lon="6.61581">
        <ele>364</ele>
        <time>2011-01-31T09:06:18Z</time>
      </trkpt>
      <trkpt lat="43.61168" lon="6.61571">
        <ele>364</ele>
        <time>2011-01-31T09:06:27Z</time>
      </trkpt>
      <trkpt lat="43.61168" lon="6.61558">
        <ele>359</ele>
        <time>2011-01-31T09:06:33Z</time>
      </trkpt>
      <trkpt lat="43.61165" lon="6.61546">
        <ele>359</ele>
        <time>2011-01-31T09:06:43Z</time>
      </trkpt>
      <trkpt lat="43.6116" lon="6.61532">
        <ele>359</ele>
        <time>2011-01-31T09:06:53Z</time>
      </trkpt>
      <trkpt lat="43.61155" lon="6.6152">
        <ele>359</ele>
        <time>2011-01-31T09:07:02Z</time>
      </trkpt>
      <trkpt lat="43.61153" lon="6.61506">
        <ele>359</ele>
        <time>2011-01-31T09:07:12Z</time>
      </trkpt>
      <trkpt lat="43.61153" lon="6.61492">
        <ele>359</ele>
        <time>2011-01-31T09:07:20Z</time>
      </trkpt>
      <trkpt lat="43.6115" lon="6.61481">
        <ele>359</ele>
        <time>2011-01-31T09:07:28Z</time>
      </trkpt>
      <trkpt lat="43.61147" lon="6.61468">
        <ele>359</ele>
        <time>2011-01-31T09:07:37Z</time>
      </trkpt>
      <trkpt lat="43.61142" lon="6.61456">
        <ele>359</ele>
        <time>2011-01-31T09:07:45Z</time>
      </trkpt>
      <trkpt lat="43.61138" lon="6.61442">
        <ele>353</ele>
        <time>2011-01-31T09:07:57Z</time>
      </trkpt>
      <trkpt lat="43.61136" lon="6.6143">
        <ele>353</ele>
        <time>2011-01-31T09:08:06Z</time>
      </trkpt>
      <trkpt lat="43.6113" lon="6.61421">
        <ele>353</ele>
        <time>2011-01-31T09:08:14Z</time>
      </trkpt>
      <trkpt lat="43.61123" lon="6.6141">
        <ele>353</ele>
        <time>2011-01-31T09:08:23Z</time>
      </trkpt>
      <trkpt lat="43.61115" lon="6.61402">
        <ele>353</ele>
        <time>2011-01-31T09:08:31Z</time>
      </trkpt>
      <trkpt lat="43.61109" lon="6.61391">
        <ele>353</ele>
        <time>2011-01-31T09:08:39Z</time>
      </trkpt>
      <trkpt lat="43.61102" lon="6.61382">
        <ele>353</ele>
        <time>2011-01-31T09:08:47Z</time>
      </trkpt>
      <trkpt lat="43.61095" lon="6.61373">
        <ele>353</ele>
        <time>2011-01-31T09:08:55Z</time>
      </trkpt>
      <trkpt lat="43.61088" lon="6.61365">
        <ele>353</ele>
        <time>2011-01-31T09:09:05Z</time>
      </trkpt>
      <trkpt lat="43.6108" lon="6.61356">
        <ele>353</ele>
        <time>2011-01-31T09:09:13Z</time>
      </trkpt>
      <trkpt lat="43.61072" lon="6.61351">
        <ele>353</ele>
        <time>2011-01-31T09:09:20Z</time>
      </trkpt>
      <trkpt lat="43.61063" lon="6.61347">
        <ele>353</ele>
        <time>2011-01-31T09:09:27Z</time>
      </trkpt>
      <trkpt lat="43.61054" lon="6.61343">
        <ele>353</ele>
        <time>2011-01-31T09:09:36Z</time>
      </trkpt>
      <trkpt lat="43.61044" lon="6.61339">
        <ele>353</ele>
        <time>2011-01-31T09:09:45Z</time>
      </trkpt>
      <trkpt lat="43.61035" lon="6.61338">
        <ele>361</ele>
        <time>2011-01-31T09:09:54Z</time>
      </trkpt>
      <trkpt lat="43.61026" lon="6.61335">
        <ele>361</ele>
        <time>2011-01-31T09:10:03Z</time>
      </trkpt>
      <trkpt lat="43.61016" lon="6.61338">
        <ele>369</ele>
        <time>2011-01-31T09:10:14Z</time>
      </trkpt>
      <trkpt lat="43.6101" lon="6.61329">
        <ele>369</ele>
        <time>2011-01-31T09:10:23Z</time>
      </trkpt>
      <trkpt lat="43.60998" lon="6.61324">
        <ele>369</ele>
        <time>2011-01-31T09:10:31Z</time>
      </trkpt>
      <trkpt lat="43.6099" lon="6.61318">
        <ele>369</ele>
        <time>2011-01-31T09:10:36Z</time>
      </trkpt>
      <trkpt lat="43.6098" lon="6.61316">
        <ele>360</ele>
        <time>2011-01-31T09:10:45Z</time>
      </trkpt>
      <trkpt lat="43.6097" lon="6.61311">
        <ele>360</ele>
        <time>2011-01-31T09:10:55Z</time>
      </trkpt>
      <trkpt lat="43.60963" lon="6.61304">
        <ele>360</ele>
        <time>2011-01-31T09:11:02Z</time>
      </trkpt>
      <trkpt lat="43.60954" lon="6.61304">
        <ele>354</ele>
        <time>2011-01-31T09:11:10Z</time>
      </trkpt>
      <trkpt lat="43.60949" lon="6.61292">
        <ele>345</ele>
        <time>2011-01-31T09:11:22Z</time>
      </trkpt>
      <trkpt lat="43.60941" lon="6.61289">
        <ele>345</ele>
        <time>2011-01-31T09:11:30Z</time>
      </trkpt>
      <trkpt lat="43.60934" lon="6.61281">
        <ele>355</ele>
        <time>2011-01-31T09:11:38Z</time>
      </trkpt>
      <trkpt lat="43.60925" lon="6.61278">
        <ele>355</ele>
        <time>2011-01-31T09:11:45Z</time>
      </trkpt>
      <trkpt lat="43.60917" lon="6.61272">
        <ele>355</ele>
        <time>2011-01-31T09:11:54Z</time>
      </trkpt>
      <trkpt lat="43.6091" lon="6.61263">
        <ele>355</ele>
        <time>2011-01-31T09:12:03Z</time>
      </trkpt>
      <trkpt lat="43.60907" lon="6.6125">
        <ele>355</ele>
        <time>2011-01-31T09:12:11Z</time>
      </trkpt>
      <trkpt lat="43.60902" lon="6.6124">
        <ele>355</ele>
        <time>2011-01-31T09:12:19Z</time>
      </trkpt>
      <trkpt lat="43.60895" lon="6.61231">
        <ele>355</ele>
        <time>2011-01-31T09:12:28Z</time>
      </trkpt>
      <trkpt lat="43.60891" lon="6.61219">
        <ele>355</ele>
        <time>2011-01-31T09:12:37Z</time>
      </trkpt>
      <trkpt lat="43.60886" lon="6.61209">
        <ele>355</ele>
        <time>2011-01-31T09:12:47Z</time>
      </trkpt>
      <trkpt lat="43.60882" lon="6.61197">
        <ele>355</ele>
        <time>2011-01-31T09:12:56Z</time>
      </trkpt>
      <trkpt lat="43.60876" lon="6.61186">
        <ele>355</ele>
        <time>2011-01-31T09:13:04Z</time>
      </trkpt>
      <trkpt lat="43.60871" lon="6.61175">
        <ele>355</ele>
        <time>2011-01-31T09:13:13Z</time>
      </trkpt>
      <trkpt lat="43.60864" lon="6.61166">
        <ele>355</ele>
        <time>2011-01-31T09:13:23Z</time>
      </trkpt>
      <trkpt lat="43.60858" lon="6.61152">
        <ele>355</ele>
        <time>2011-01-31T09:13:34Z</time>
      </trkpt>
      <trkpt lat="43.60855" lon="6.6114">
        <ele>355</ele>
        <time>2011-01-31T09:13:41Z</time>
      </trkpt>
      <trkpt lat="43.60849" lon="6.61124">
        <ele>355</ele>
        <time>2011-01-31T09:13:53Z</time>
      </trkpt>
      <trkpt lat="43.60841" lon="6.61117">
        <ele>355</ele>
        <time>2011-01-31T09:14:03Z</time>
      </trkpt>
      <trkpt lat="43.60836" lon="6.61106">
        <ele>355</ele>
        <time>2011-01-31T09:14:12Z</time>
      </trkpt>
      <trkpt lat="43.60832" lon="6.61094">
        <ele>355</ele>
        <time>2011-01-31T09:14:21Z</time>
      </trkpt>
      <trkpt lat="43.60827" lon="6.61083">
        <ele>355</ele>
        <time>2011-01-31T09:14:30Z</time>
      </trkpt>
      <trkpt lat="43.60821" lon="6.61073">
        <ele>355</ele>
        <time>2011-01-31T09:14:39Z</time>
      </trkpt>
      <trkpt lat="43.60815" lon="6.61063">
        <ele>350</ele>
        <time>2011-01-31T09:14:48Z</time>
      </trkpt>
      <trkpt lat="43.60808" lon="6.61052">
        <ele>350</ele>
        <time>2011-01-31T09:14:57Z</time>
      </trkpt>
      <trkpt lat="43.60803" lon="6.61042">
        <ele>350</ele>
        <time>2011-01-31T09:15:05Z</time>
      </trkpt>
      <trkpt lat="43.60798" lon="6.61032">
        <ele>350</ele>
        <time>2011-01-31T09:15:13Z</time>
      </trkpt>
      <trkpt lat="43.60793" lon="6.61019">
        <ele>350</ele>
        <time>2011-01-31T09:15:23Z</time>
      </trkpt>
      <trkpt lat="43.60788" lon="6.61009">
        <ele>350</ele>
        <time>2011-01-31T09:15:31Z</time>
      </trkpt>
      <trkpt lat="43.60784" lon="6.60998">
        <ele>350</ele>
        <time>2011-01-31T09:15:39Z</time>
      </trkpt>
      <trkpt lat="43.60779" lon="6.60987">
        <ele>350</ele>
        <time>2011-01-31T09:15:49Z</time>
      </trkpt>
      <trkpt lat="43.60778" lon="6.60974">
        <ele>350</ele>
        <time>2011-01-31T09:15:55Z</time>
      </trkpt>
      <trkpt lat="43.60774" lon="6.60962">
        <ele>350</ele>
        <time>2011-01-31T09:16:09Z</time>
      </trkpt>
      <trkpt lat="43.60773" lon="6.60949">
        <ele>350</ele>
        <time>2011-01-31T09:16:17Z</time>
      </trkpt>
      <trkpt lat="43.60771" lon="6.60936">
        <ele>350</ele>
        <time>2011-01-31T09:16:26Z</time>
      </trkpt>
      <trkpt lat="43.60769" lon="6.60923">
        <ele>350</ele>
        <time>2011-01-31T09:16:34Z</time>
      </trkpt>
      <trkpt lat="43.60766" lon="6.6091">
        <ele>350</ele>
        <time>2011-01-31T09:16:43Z</time>
      </trkpt>
      <trkpt lat="43.60761" lon="6.60898">
        <ele>350</ele>
        <time>2011-01-31T09:16:50Z</time>
      </trkpt>
      <trkpt lat="43.60764" lon="6.60884">
        <ele>358</ele>
        <time>2011-01-31T09:16:59Z</time>
      </trkpt>
      <trkpt lat="43.60767" lon="6.60869">
        <ele>358</ele>
        <time>2011-01-31T09:17:10Z</time>
      </trkpt>
      <trkpt lat="43.60766" lon="6.60856">
        <ele>358</ele>
        <time>2011-01-31T09:17:19Z</time>
      </trkpt>
      <trkpt lat="43.60768" lon="6.60842">
        <ele>358</ele>
        <time>2011-01-31T09:17:28Z</time>
      </trkpt>
      <trkpt lat="43.6077" lon="6.60829">
        <ele>358</ele>
        <time>2011-01-31T09:17:37Z</time>
      </trkpt>
      <trkpt lat="43.6077" lon="6.60816">
        <ele>358</ele>
        <time>2011-01-31T09:17:44Z</time>
      </trkpt>
      <trkpt lat="43.60774" lon="6.60804">
        <ele>347</ele>
        <time>2011-01-31T09:17:52Z</time>
      </trkpt>
      <trkpt lat="43.60777" lon="6.60793">
        <ele>347</ele>
        <time>2011-01-31T09:17:59Z</time>
      </trkpt>
      <trkpt lat="43.60779" lon="6.60781">
        <ele>347</ele>
        <time>2011-01-31T09:18:09Z</time>
      </trkpt>
      <trkpt lat="43.60783" lon="6.60769">
        <ele>347</ele>
        <time>2011-01-31T09:18:20Z</time>
      </trkpt>
      <trkpt lat="43.60787" lon="6.60758">
        <ele>347</ele>
        <time>2011-01-31T09:18:28Z</time>
      </trkpt>
      <trkpt lat="43.60793" lon="6.60743">
        <ele>347</ele>
        <time>2011-01-31T09:18:39Z</time>
      </trkpt>
      <trkpt lat="43.60794" lon="6.60731">
        <ele>347</ele>
        <time>2011-01-31T09:18:45Z</time>
      </trkpt>
      <trkpt lat="43.60798" lon="6.60719">
        <ele>354</ele>
        <time>2011-01-31T09:18:52Z</time>
      </trkpt>
      <trkpt lat="43.60802" lon="6.60705">
        <ele>354</ele>
        <time>2011-01-31T09:19:01Z</time>
      </trkpt>
      <trkpt lat="43.60804" lon="6.60691">
        <ele>354</ele>
        <time>2011-01-31T09:19:19Z</time>
      </trkpt>
      <trkpt lat="43.60807" lon="6.60679">
        <ele>354</ele>
        <time>2011-01-31T09:19:28Z</time>
      </trkpt>
      <trkpt lat="43.60812" lon="6.60668">
        <ele>354</ele>
        <time>2011-01-31T09:19:36Z</time>
      </trkpt>
      <trkpt lat="43.60812" lon="6.60655">
        <ele>354</ele>
        <time>2011-01-31T09:19:44Z</time>
      </trkpt>
      <trkpt lat="43.60811" lon="6.60643">
        <ele>354</ele>
        <time>2011-01-31T09:19:53Z</time>
      </trkpt>
      <trkpt lat="43.60813" lon="6.60629">
        <ele>354</ele>
        <time>2011-01-31T09:20:03Z</time>
      </trkpt>
      <trkpt lat="43.60811" lon="6.60612">
        <ele>354</ele>
        <time>2011-01-31T09:20:14Z</time>
      </trkpt>
      <trkpt lat="43.60808" lon="6.606">
        <ele>354</ele>
        <time>2011-01-31T09:20:20Z</time>
      </trkpt>
      <trkpt lat="43.60808" lon="6.60587">
        <ele>354</ele>
        <time>2011-01-31T09:20:31Z</time>
      </trkpt>
      <trkpt lat="43.60805" lon="6.60573">
        <ele>354</ele>
        <time>2011-01-31T09:20:40Z</time>
      </trkpt>
      <trkpt lat="43.608" lon="6.60564">
        <ele>354</ele>
        <time>2011-01-31T09:20:50Z</time>
      </trkpt>
      <trkpt lat="43.60799" lon="6.6055">
        <ele>360</ele>
        <time>2011-01-31T09:21:00Z</time>
      </trkpt>
      <trkpt lat="43.60795" lon="6.60538">
        <ele>354</ele>
        <time>2011-01-31T09:21:08Z</time>
      </trkpt>
      <trkpt lat="43.60791" lon="6.60527">
        <ele>354</ele>
        <time>2011-01-31T09:21:29Z</time>
      </trkpt>
      <trkpt lat="43.608" lon="6.6053">
        <ele>354</ele>
        <time>2011-01-31T09:22:11Z</time>
      </trkpt>
      <trkpt lat="43.608" lon="6.60518">
        <ele>347</ele>
        <time>2011-01-31T09:22:42Z</time>
      </trkpt>
      <trkpt lat="43.60791" lon="6.6052">
        <ele>347</ele>
        <time>2011-01-31T09:24:07Z</time>
      </trkpt>
      <trkpt lat="43.60798" lon="6.60528">
        <ele>347</ele>
        <time>2011-01-31T09:24:22Z</time>
      </trkpt>
      <trkpt lat="43.60803" lon="6.60538">
        <ele>356</ele>
        <time>2011-01-31T09:24:33Z</time>
      </trkpt>
      <trkpt lat="43.60808" lon="6.60549">
        <ele>362</ele>
        <time>2011-01-31T09:24:48Z</time>
      </trkpt>
      <trkpt lat="43.60816" lon="6.60554">
        <ele>362</ele>
        <time>2011-01-31T09:24:59Z</time>
      </trkpt>
      <trkpt lat="43.60825" lon="6.60557">
        <ele>362</ele>
        <time>2011-01-31T09:25:09Z</time>
      </trkpt>
      <trkpt lat="43.60834" lon="6.60562">
        <ele>362</ele>
        <time>2011-01-31T09:25:18Z</time>
      </trkpt>
      <trkpt lat="43.6084" lon="6.60572">
        <ele>362</ele>
        <time>2011-01-31T09:25:31Z</time>
      </trkpt>
      <trkpt lat="43.60846" lon="6.60582">
        <ele>362</ele>
        <time>2011-01-31T09:25:43Z</time>
      </trkpt>
      <trkpt lat="43.60853" lon="6.60591">
        <ele>362</ele>
        <time>2011-01-31T09:25:54Z</time>
      </trkpt>
      <trkpt lat="43.6086" lon="6.606">
        <ele>362</ele>
        <time>2011-01-31T09:26:06Z</time>
      </trkpt>
      <trkpt lat="43.60864" lon="6.60612">
        <ele>369</ele>
        <time>2011-01-31T09:26:21Z</time>
      </trkpt>
      <trkpt lat="43.60866" lon="6.60625">
        <ele>369</ele>
        <time>2011-01-31T09:26:31Z</time>
      </trkpt>
      <trkpt lat="43.60871" lon="6.60635">
        <ele>369</ele>
        <time>2011-01-31T09:26:41Z</time>
      </trkpt>
      <trkpt lat="43.60876" lon="6.60647">
        <ele>369</ele>
        <time>2011-01-31T09:26:53Z</time>
      </trkpt>
      <trkpt lat="43.60881" lon="6.60658">
        <ele>369</ele>
        <time>2011-01-31T09:27:07Z</time>
      </trkpt>
      <trkpt lat="43.60885" lon="6.60669">
        <ele>369</ele>
        <time>2011-01-31T09:27:20Z</time>
      </trkpt>
      <trkpt lat="43.60888" lon="6.6068">
        <ele>369</ele>
        <time>2011-01-31T09:27:32Z</time>
      </trkpt>
      <trkpt lat="43.60891" lon="6.60693">
        <ele>369</ele>
        <time>2011-01-31T09:27:44Z</time>
      </trkpt>
      <trkpt lat="43.60894" lon="6.60705">
        <ele>369</ele>
        <time>2011-01-31T09:27:54Z</time>
      </trkpt>
      <trkpt lat="43.60896" lon="6.60716">
        <ele>369</ele>
        <time>2011-01-31T09:28:07Z</time>
      </trkpt>
      <trkpt lat="43.60899" lon="6.60728">
        <ele>369</ele>
        <time>2011-01-31T09:28:50Z</time>
      </trkpt>
      <trkpt lat="43.60905" lon="6.60737">
        <ele>369</ele>
        <time>2011-01-31T09:29:01Z</time>
      </trkpt>
      <trkpt lat="43.60913" lon="6.60744">
        <ele>375</ele>
        <time>2011-01-31T09:29:13Z</time>
      </trkpt>
      <trkpt lat="43.60919" lon="6.60754">
        <ele>375</ele>
        <time>2011-01-31T09:29:22Z</time>
      </trkpt>
      <trkpt lat="43.60928" lon="6.60759">
        <ele>375</ele>
        <time>2011-01-31T09:29:35Z</time>
      </trkpt>
      <trkpt lat="43.60934" lon="6.60769">
        <ele>375</ele>
        <time>2011-01-31T09:29:44Z</time>
      </trkpt>
      <trkpt lat="43.6094" lon="6.60779">
        <ele>375</ele>
        <time>2011-01-31T09:29:55Z</time>
      </trkpt>
      <trkpt lat="43.60945" lon="6.60789">
        <ele>375</ele>
        <time>2011-01-31T09:30:04Z</time>
      </trkpt>
      <trkpt lat="43.60953" lon="6.60796">
        <ele>375</ele>
        <time>2011-01-31T09:30:13Z</time>
      </trkpt>
      <trkpt lat="43.60959" lon="6.60806">
        <ele>375</ele>
        <time>2011-01-31T09:30:23Z</time>
      </trkpt>
      <trkpt lat="43.60966" lon="6.60813">
        <ele>375</ele>
        <time>2011-01-31T09:30:33Z</time>
      </trkpt>
      <trkpt lat="43.60975" lon="6.60819">
        <ele>375</ele>
        <time>2011-01-31T09:30:45Z</time>
      </trkpt>
      <trkpt lat="43.60982" lon="6.60825">
        <ele>375</ele>
        <time>2011-01-31T09:30:55Z</time>
      </trkpt>
      <trkpt lat="43.6099" lon="6.60832">
        <ele>375</ele>
        <time>2011-01-31T09:31:06Z</time>
      </trkpt>
      <trkpt lat="43.60999" lon="6.60836">
        <ele>375</ele>
        <time>2011-01-31T09:31:16Z</time>
      </trkpt>
      <trkpt lat="43.61007" lon="6.60839">
        <ele>375</ele>
        <time>2011-01-31T09:31:26Z</time>
      </trkpt>
      <trkpt lat="43.61014" lon="6.60847">
        <ele>375</ele>
        <time>2011-01-31T09:31:37Z</time>
      </trkpt>
      <trkpt lat="43.61022" lon="6.60853">
        <ele>382</ele>
        <time>2011-01-31T09:31:48Z</time>
      </trkpt>
      <trkpt lat="43.61029" lon="6.60861">
        <ele>382</ele>
        <time>2011-01-31T09:32:02Z</time>
      </trkpt>
      <trkpt lat="43.61037" lon="6.60868">
        <ele>382</ele>
        <time>2011-01-31T09:32:13Z</time>
      </trkpt>
      <trkpt lat="43.61044" lon="6.60875">
        <ele>382</ele>
        <time>2011-01-31T09:32:24Z</time>
      </trkpt>
      <trkpt lat="43.61052" lon="6.60884">
        <ele>382</ele>
        <time>2011-01-31T09:32:40Z</time>
      </trkpt>
      <trkpt lat="43.61061" lon="6.6089">
        <ele>382</ele>
        <time>2011-01-31T09:32:51Z</time>
      </trkpt>
      <trkpt lat="43.61069" lon="6.60897">
        <ele>382</ele>
        <time>2011-01-31T09:33:04Z</time>
      </trkpt>
      <trkpt lat="43.61077" lon="6.60903">
        <ele>382</ele>
        <time>2011-01-31T09:33:13Z</time>
      </trkpt>
      <trkpt lat="43.61084" lon="6.6091">
        <ele>382</ele>
        <time>2011-01-31T09:33:23Z</time>
      </trkpt>
      <trkpt lat="43.61092" lon="6.60918">
        <ele>389</ele>
        <time>2011-01-31T09:33:37Z</time>
      </trkpt>
      <trkpt lat="43.61099" lon="6.60925">
        <ele>389</ele>
        <time>2011-01-31T09:33:47Z</time>
      </trkpt>
      <trkpt lat="43.61106" lon="6.60932">
        <ele>389</ele>
        <time>2011-01-31T09:33:57Z</time>
      </trkpt>
      <trkpt lat="43.61114" lon="6.60939">
        <ele>389</ele>
        <time>2011-01-31T09:34:08Z</time>
      </trkpt>
      <trkpt lat="43.61121" lon="6.60947">
        <ele>389</ele>
        <time>2011-01-31T09:36:10Z</time>
      </trkpt>
      <trkpt lat="43.61128" lon="6.60954">
        <ele>394</ele>
        <time>2011-01-31T09:36:21Z</time>
      </trkpt>
      <trkpt lat="43.61135" lon="6.60962">
        <ele>394</ele>
        <time>2011-01-31T09:36:31Z</time>
      </trkpt>
      <trkpt lat="43.6114" lon="6.60973">
        <ele>394</ele>
        <time>2011-01-31T09:36:42Z</time>
      </trkpt>
      <trkpt lat="43.61144" lon="6.60986">
        <ele>394</ele>
        <time>2011-01-31T09:36:52Z</time>
      </trkpt>
      <trkpt lat="43.61149" lon="6.60996">
        <ele>394</ele>
        <time>2011-01-31T09:37:03Z</time>
      </trkpt>
      <trkpt lat="43.61157" lon="6.61003">
        <ele>394</ele>
        <time>2011-01-31T09:37:14Z</time>
      </trkpt>
      <trkpt lat="43.61165" lon="6.61007">
        <ele>401</ele>
        <time>2011-01-31T09:37:25Z</time>
      </trkpt>
      <trkpt lat="43.61174" lon="6.61006">
        <ele>401</ele>
        <time>2011-01-31T09:37:35Z</time>
      </trkpt>
      <trkpt lat="43.61178" lon="6.61017">
        <ele>391</ele>
        <time>2011-01-31T09:37:48Z</time>
      </trkpt>
      <trkpt lat="43.61177" lon="6.6103">
        <ele>385</ele>
        <time>2011-01-31T09:37:59Z</time>
      </trkpt>
      <trkpt lat="43.61181" lon="6.61042">
        <ele>385</ele>
        <time>2011-01-31T09:38:10Z</time>
      </trkpt>
      <trkpt lat="43.6118" lon="6.61054">
        <ele>393</ele>
        <time>2011-01-31T09:38:22Z</time>
      </trkpt>
      <trkpt lat="43.61181" lon="6.61068">
        <ele>393</ele>
        <time>2011-01-31T09:38:33Z</time>
      </trkpt>
      <trkpt lat="43.61183" lon="6.61081">
        <ele>393</ele>
        <time>2011-01-31T09:38:48Z</time>
      </trkpt>
      <trkpt lat="43.61187" lon="6.61093">
        <ele>393</ele>
        <time>2011-01-31T09:38:58Z</time>
      </trkpt>
      <trkpt lat="43.61187" lon="6.61105">
        <ele>386</ele>
        <time>2011-01-31T09:39:08Z</time>
      </trkpt>
      <trkpt lat="43.6119" lon="6.61117">
        <ele>386</ele>
        <time>2011-01-31T09:39:17Z</time>
      </trkpt>
      <trkpt lat="43.61192" lon="6.6113">
        <ele>379</ele>
        <time>2011-01-31T09:39:30Z</time>
      </trkpt>
      <trkpt lat="43.61192" lon="6.61142">
        <ele>379</ele>
        <time>2011-01-31T09:39:41Z</time>
      </trkpt>
      <trkpt lat="43.61193" lon="6.61155">
        <ele>374</ele>
        <time>2011-01-31T09:39:50Z</time>
      </trkpt>
      <trkpt lat="43.61199" lon="6.61165">
        <ele>374</ele>
        <time>2011-01-31T09:40:01Z</time>
      </trkpt>
      <trkpt lat="43.61198" lon="6.61177">
        <ele>374</ele>
        <time>2011-01-31T09:40:08Z</time>
      </trkpt>
      <trkpt lat="43.61202" lon="6.61189">
        <ele>374</ele>
        <time>2011-01-31T09:40:18Z</time>
      </trkpt>
      <trkpt lat="43.61204" lon="6.61201">
        <ele>374</ele>
        <time>2011-01-31T09:40:30Z</time>
      </trkpt>
      <trkpt lat="43.61209" lon="6.61212">
        <ele>366</ele>
        <time>2011-01-31T09:40:43Z</time>
      </trkpt>
      <trkpt lat="43.61216" lon="6.61219">
        <ele>366</ele>
        <time>2011-01-31T09:40:58Z</time>
      </trkpt>
      <trkpt lat="43.61221" lon="6.61229">
        <ele>372</ele>
        <time>2011-01-31T09:41:11Z</time>
      </trkpt>
      <trkpt lat="43.61219" lon="6.61241">
        <ele>378</ele>
        <time>2011-01-31T09:41:33Z</time>
      </trkpt>
      <trkpt lat="43.61217" lon="6.61254">
        <ele>378</ele>
        <time>2011-01-31T09:41:46Z</time>
      </trkpt>
      <trkpt lat="43.61209" lon="6.61261">
        <ele>378</ele>
        <time>2011-01-31T09:41:59Z</time>
      </trkpt>
      <trkpt lat="43.61204" lon="6.61271">
        <ele>378</ele>
        <time>2011-01-31T09:42:09Z</time>
      </trkpt>
      <trkpt lat="43.61198" lon="6.61281">
        <ele>378</ele>
        <time>2011-01-31T09:42:53Z</time>
      </trkpt>
      <trkpt lat="43.61196" lon="6.61295">
        <ele>378</ele>
        <time>2011-01-31T09:43:05Z</time>
      </trkpt>
      <trkpt lat="43.61197" lon="6.61308">
        <ele>378</ele>
        <time>2011-01-31T09:43:16Z</time>
      </trkpt>
      <trkpt lat="43.61201" lon="6.61319">
        <ele>372</ele>
        <time>2011-01-31T09:43:26Z</time>
      </trkpt>
      <trkpt lat="43.61206" lon="6.61331">
        <ele>372</ele>
        <time>2011-01-31T09:43:37Z</time>
      </trkpt>
      <trkpt lat="43.6121" lon="6.61342">
        <ele>380</ele>
        <time>2011-01-31T09:43:48Z</time>
      </trkpt>
      <trkpt lat="43.61215" lon="6.61354">
        <ele>380</ele>
        <time>2011-01-31T09:44:00Z</time>
      </trkpt>
      <trkpt lat="43.61221" lon="6.61364">
        <ele>380</ele>
        <time>2011-01-31T09:44:13Z</time>
      </trkpt>
      <trkpt lat="43.61229" lon="6.61373">
        <ele>389</ele>
        <time>2011-01-31T09:44:26Z</time>
      </trkpt>
      <trkpt lat="43.61236" lon="6.61381">
        <ele>389</ele>
        <time>2011-01-31T09:44:41Z</time>
      </trkpt>
      <trkpt lat="43.61242" lon="6.61391">
        <ele>389</ele>
        <time>2011-01-31T09:44:56Z</time>
      </trkpt>
      <trkpt lat="43.61249" lon="6.614">
        <ele>389</ele>
        <time>2011-01-31T09:45:09Z</time>
      </trkpt>
      <trkpt lat="43.61257" lon="6.61409">
        <ele>389</ele>
        <time>2011-01-31T09:45:22Z</time>
      </trkpt>
      <trkpt lat="43.61264" lon="6.61416">
        <ele>389</ele>
        <time>2011-01-31T09:45:37Z</time>
      </trkpt>
      <trkpt lat="43.61271" lon="6.61424">
        <ele>389</ele>
        <time>2011-01-31T09:45:49Z</time>
      </trkpt>
      <trkpt lat="43.61276" lon="6.61435">
        <ele>383</ele>
        <time>2011-01-31T09:46:01Z</time>
      </trkpt>
      <trkpt lat="43.61278" lon="6.61447">
        <ele>383</ele>
        <time>2011-01-31T09:46:09Z</time>
      </trkpt>
      <trkpt lat="43.61285" lon="6.61455">
        <ele>383</ele>
        <time>2011-01-31T09:46:19Z</time>
      </trkpt>
      <trkpt lat="43.61292" lon="6.61464">
        <ele>392</ele>
        <time>2011-01-31T09:46:31Z</time>
      </trkpt>
      <trkpt lat="43.613" lon="6.61473">
        <ele>392</ele>
        <time>2011-01-31T09:46:42Z</time>
      </trkpt>
      <trkpt lat="43.61307" lon="6.61481">
        <ele>392</ele>
        <time>2011-01-31T09:46:52Z</time>
      </trkpt>
      <trkpt lat="43.61314" lon="6.6149">
        <ele>392</ele>
        <time>2011-01-31T09:47:03Z</time>
      </trkpt>
      <trkpt lat="43.61322" lon="6.61499">
        <ele>392</ele>
        <time>2011-01-31T09:47:14Z</time>
      </trkpt>
      <trkpt lat="43.61326" lon="6.6151">
        <ele>386</ele>
        <time>2011-01-31T09:47:24Z</time>
      </trkpt>
      <trkpt lat="43.61334" lon="6.61518">
        <ele>386</ele>
        <time>2011-01-31T09:47:34Z</time>
      </trkpt>
      <trkpt lat="43.61339" lon="6.61528">
        <ele>386</ele>
        <time>2011-01-31T09:47:43Z</time>
      </trkpt>
      <trkpt lat="43.61346" lon="6.61536">
        <ele>386</ele>
        <time>2011-01-31T09:47:52Z</time>
      </trkpt>
      <trkpt lat="43.61355" lon="6.61542">
        <ele>386</ele>
        <time>2011-01-31T09:48:03Z</time>
      </trkpt>
      <trkpt lat="43.61362" lon="6.6155">
        <ele>386</ele>
        <time>2011-01-31T09:48:13Z</time>
      </trkpt>
      <trkpt lat="43.61366" lon="6.61563">
        <ele>386</ele>
        <time>2011-01-31T09:48:24Z</time>
      </trkpt>
      <trkpt lat="43.61367" lon="6.61575">
        <ele>381</ele>
        <time>2011-01-31T09:48:38Z</time>
      </trkpt>
      <trkpt lat="43.61371" lon="6.61588">
        <ele>381</ele>
        <time>2011-01-31T09:49:30Z</time>
      </trkpt>
      <trkpt lat="43.61378" lon="6.61597">
        <ele>381</ele>
        <time>2011-01-31T09:49:41Z</time>
      </trkpt>
      <trkpt lat="43.61386" lon="6.61604">
        <ele>388</ele>
        <time>2011-01-31T09:49:51Z</time>
      </trkpt>
      <trkpt lat="43.61394" lon="6.61611">
        <ele>388</ele>
        <time>2011-01-31T09:50:04Z</time>
      </trkpt>
      <trkpt lat="43.614" lon="6.61621">
        <ele>394</ele>
        <time>2011-01-31T09:50:18Z</time>
      </trkpt>
      <trkpt lat="43.61403" lon="6.61633">
        <ele>394</ele>
        <time>2011-01-31T09:50:31Z</time>
      </trkpt>
      <trkpt lat="43.61411" lon="6.61642">
        <ele>394</ele>
        <time>2011-01-31T09:50:46Z</time>
      </trkpt>
      <trkpt lat="43.61418" lon="6.61649">
        <ele>394</ele>
        <time>2011-01-31T09:51:04Z</time>
      </trkpt>
      <trkpt lat="43.61428" lon="6.61653">
        <ele>394</ele>
        <time>2011-01-31T09:51:17Z</time>
      </trkpt>
      <trkpt lat="43.61428" lon="6.61668">
        <ele>400</ele>
        <time>2011-01-31T09:51:29Z</time>
      </trkpt>
      <trkpt lat="43.61437" lon="6.61673">
        <ele>400</ele>
        <time>2011-01-31T09:51:48Z</time>
      </trkpt>
      <trkpt lat="43.61443" lon="6.61682">
        <ele>408</ele>
        <time>2011-01-31T09:51:59Z</time>
      </trkpt>
      <trkpt lat="43.61452" lon="6.61685">
        <ele>408</ele>
        <time>2011-01-31T09:52:13Z</time>
      </trkpt>
      <trkpt lat="43.61461" lon="6.61689">
        <ele>415</ele>
        <time>2011-01-31T09:52:33Z</time>
      </trkpt>
      <trkpt lat="43.61469" lon="6.61695">
        <ele>399</ele>
        <time>2011-01-31T09:52:45Z</time>
      </trkpt>
      <trkpt lat="43.61477" lon="6.61692">
        <ele>390</ele>
        <time>2011-01-31T09:52:57Z</time>
      </trkpt>
      <trkpt lat="43.61482" lon="6.61703">
        <ele>424</ele>
        <time>2011-01-31T09:53:12Z</time>
      </trkpt>
      <trkpt lat="43.61485" lon="6.6169">
        <ele>411</ele>
        <time>2011-01-31T09:53:26Z</time>
      </trkpt>
      <trkpt lat="43.61486" lon="6.61678">
        <ele>411</ele>
        <time>2011-01-31T09:54:17Z</time>
      </trkpt>
      <trkpt lat="43.6148" lon="6.61667">
        <ele>411</ele>
        <time>2011-01-31T09:54:34Z</time>
      </trkpt>
      <trkpt lat="43.61473" lon="6.6166">
        <ele>411</ele>
        <time>2011-01-31T09:54:49Z</time>
      </trkpt>
      <trkpt lat="43.61467" lon="6.6165">
        <ele>423</ele>
        <time>2011-01-31T09:54:59Z</time>
      </trkpt>
      <trkpt lat="43.61464" lon="6.61637">
        <ele>423</ele>
        <time>2011-01-31T09:55:17Z</time>
      </trkpt>
      <trkpt lat="43.61463" lon="6.61624">
        <ele>417</ele>
        <time>2011-01-31T09:55:30Z</time>
      </trkpt>
      <trkpt lat="43.61464" lon="6.61608">
        <ele>417</ele>
        <time>2011-01-31T09:55:56Z</time>
      </trkpt>
      <trkpt lat="43.61465" lon="6.61596">
        <ele>417</ele>
        <time>2011-01-31T09:56:11Z</time>
      </trkpt>
      <trkpt lat="43.61469" lon="6.61581">
        <ele>423</ele>
        <time>2011-01-31T09:56:24Z</time>
      </trkpt>
      <trkpt lat="43.61474" lon="6.6157">
        <ele>434</ele>
        <time>2011-01-31T09:56:37Z</time>
      </trkpt>
      <trkpt lat="43.61477" lon="6.61558">
        <ele>418</ele>
        <time>2011-01-31T09:56:52Z</time>
      </trkpt>
      <trkpt lat="43.61477" lon="6.61545">
        <ele>418</ele>
        <time>2011-01-31T09:57:01Z</time>
      </trkpt>
      <trkpt lat="43.61479" lon="6.61532">
        <ele>418</ele>
        <time>2011-01-31T09:57:19Z</time>
      </trkpt>
      <trkpt lat="43.61479" lon="6.61519">
        <ele>426</ele>
        <time>2011-01-31T09:57:37Z</time>
      </trkpt>
      <trkpt lat="43.6148" lon="6.61532">
        <ele>440</ele>
        <time>2011-01-31T09:58:10Z</time>
      </trkpt>
      <trkpt lat="43.61482" lon="6.61545">
        <ele>447</ele>
        <time>2011-01-31T09:58:23Z</time>
      </trkpt>
      <trkpt lat="43.6148" lon="6.61557">
        <ele>456</ele>
        <time>2011-01-31T09:58:35Z</time>
      </trkpt>
      <trkpt lat="43.61487" lon="6.61565">
        <ele>441</ele>
        <time>2011-01-31T09:58:50Z</time>
      </trkpt>
      <trkpt lat="43.61492" lon="6.61577">
        <ele>448</ele>
        <time>2011-01-31T09:59:03Z</time>
      </trkpt>
      <trkpt lat="43.61499" lon="6.61584">
        <ele>437</ele>
        <time>2011-01-31T09:59:15Z</time>
      </trkpt>
      <trkpt lat="43.61502" lon="6.61597">
        <ele>444</ele>
        <time>2011-01-31T09:59:30Z</time>
      </trkpt>
      <trkpt lat="43.61511" lon="6.616">
        <ele>444</ele>
        <time>2011-01-31T09:59:41Z</time>
      </trkpt>
      <trkpt lat="43.61518" lon="6.61609">
        <ele>452</ele>
        <time>2011-01-31T10:00:00Z</time>
      </trkpt>
      <trkpt lat="43.61526" lon="6.61615">
        <ele>461</ele>
        <time>2011-01-31T10:00:16Z</time>
      </trkpt>
      <trkpt lat="43.61535" lon="6.61616">
        <ele>461</ele>
        <time>2011-01-31T10:00:30Z</time>
      </trkpt>
      <trkpt lat="43.61544" lon="6.61615">
        <ele>454</ele>
        <time>2011-01-31T10:00:47Z</time>
      </trkpt>
      <trkpt lat="43.61554" lon="6.61615">
        <ele>454</ele>
        <time>2011-01-31T10:00:58Z</time>
      </trkpt>
      <trkpt lat="43.61563" lon="6.61614">
        <ele>454</ele>
        <time>2011-01-31T10:01:17Z</time>
      </trkpt>
      <trkpt lat="43.61572" lon="6.61615">
        <ele>454</ele>
        <time>2011-01-31T10:01:32Z</time>
      </trkpt>
      <trkpt lat="43.61581" lon="6.61607">
        <ele>462</ele>
        <time>2011-01-31T10:01:45Z</time>
      </trkpt>
      <trkpt lat="43.61584" lon="6.61596">
        <ele>440</ele>
        <time>2011-01-31T10:02:00Z</time>
      </trkpt>
      <trkpt lat="43.61577" lon="6.61606">
        <ele>466</ele>
        <time>2011-01-31T10:02:44Z</time>
      </trkpt>
      <trkpt lat="43.61585" lon="6.61598">
        <ele>449</ele>
        <time>2011-01-31T10:03:14Z</time>
      </trkpt>
      <trkpt lat="43.61594" lon="6.61596">
        <ele>418</ele>
        <time>2011-01-31T10:04:19Z</time>
      </trkpt>
      <trkpt lat="43.61586" lon="6.61587">
        <ele>433</ele>
        <time>2011-01-31T10:04:26Z</time>
      </trkpt>
      <trkpt lat="43.61582" lon="6.61598">
        <ele>474</ele>
        <time>2011-01-31T10:05:20Z</time>
      </trkpt>
      <trkpt lat="43.6159" lon="6.61602">
        <ele>464</ele>
        <time>2011-01-31T10:05:29Z</time>
      </trkpt>
      <trkpt lat="43.61597" lon="6.61611">
        <ele>464</ele>
        <time>2011-01-31T10:05:38Z</time>
      </trkpt>
      <trkpt lat="43.61606" lon="6.61614">
        <ele>464</ele>
        <time>2011-01-31T10:05:49Z</time>
      </trkpt>
      <trkpt lat="43.61612" lon="6.61624">
        <ele>464</ele>
        <time>2011-01-31T10:06:02Z</time>
      </trkpt>
      <trkpt lat="43.61618" lon="6.61634">
        <ele>464</ele>
        <time>2011-01-31T10:06:13Z</time>
      </trkpt>
      <trkpt lat="43.61627" lon="6.61642">
        <ele>464</ele>
        <time>2011-01-31T10:06:34Z</time>
      </trkpt>
      <trkpt lat="43.61631" lon="6.61653">
        <ele>464</ele>
        <time>2011-01-31T10:06:42Z</time>
      </trkpt>
      <trkpt lat="43.6164" lon="6.61655">
        <ele>454</ele>
        <time>2011-01-31T10:06:54Z</time>
      </trkpt>
      <trkpt lat="43.61648" lon="6.61661">
        <ele>468</ele>
        <time>2011-01-31T10:07:11Z</time>
      </trkpt>
      <trkpt lat="43.61657" lon="6.61664">
        <ele>468</ele>
        <time>2011-01-31T10:07:24Z</time>
      </trkpt>
      <trkpt lat="43.61665" lon="6.61673">
        <ele>468</ele>
        <time>2011-01-31T10:07:37Z</time>
      </trkpt>
      <trkpt lat="43.61668" lon="6.61686">
        <ele>468</ele>
        <time>2011-01-31T10:07:52Z</time>
      </trkpt>
      <trkpt lat="43.61674" lon="6.61696">
        <ele>468</ele>
        <time>2011-01-31T10:08:03Z</time>
      </trkpt>
      <trkpt lat="43.6168" lon="6.61707">
        <ele>461</ele>
        <time>2011-01-31T10:08:12Z</time>
      </trkpt>
      <trkpt lat="43.61686" lon="6.61716">
        <ele>461</ele>
        <time>2011-01-31T10:08:22Z</time>
      </trkpt>
      <trkpt lat="43.61695" lon="6.6172">
        <ele>461</ele>
        <time>2011-01-31T10:08:38Z</time>
      </trkpt>
      <trkpt lat="43.61698" lon="6.61732">
        <ele>461</ele>
        <time>2011-01-31T10:08:49Z</time>
      </trkpt>
      <trkpt lat="43.61704" lon="6.61742">
        <ele>461</ele>
        <time>2011-01-31T10:09:01Z</time>
      </trkpt>
      <trkpt lat="43.61705" lon="6.61755">
        <ele>466</ele>
        <time>2011-01-31T10:09:10Z</time>
      </trkpt>
      <trkpt lat="43.6171" lon="6.61765">
        <ele>466</ele>
        <time>2011-01-31T10:09:22Z</time>
      </trkpt>
      <trkpt lat="43.61715" lon="6.61775">
        <ele>466</ele>
        <time>2011-01-31T10:09:30Z</time>
      </trkpt>
      <trkpt lat="43.61719" lon="6.61787">
        <ele>466</ele>
        <time>2011-01-31T10:09:40Z</time>
      </trkpt>
      <trkpt lat="43.61727" lon="6.61794">
        <ele>460</ele>
        <time>2011-01-31T10:09:52Z</time>
      </trkpt>
      <trkpt lat="43.6173" lon="6.61806">
        <ele>460</ele>
        <time>2011-01-31T10:10:03Z</time>
      </trkpt>
      <trkpt lat="43.61734" lon="6.61818">
        <ele>460</ele>
        <time>2011-01-31T10:10:14Z</time>
      </trkpt>
      <trkpt lat="43.6174" lon="6.61828">
        <ele>460</ele>
        <time>2011-01-31T10:10:22Z</time>
      </trkpt>
      <trkpt lat="43.61748" lon="6.61833">
        <ele>468</ele>
        <time>2011-01-31T10:10:32Z</time>
      </trkpt>
      <trkpt lat="43.61757" lon="6.61838">
        <ele>468</ele>
        <time>2011-01-31T10:10:46Z</time>
      </trkpt>
      <trkpt lat="43.61766" lon="6.61844">
        <ele>462</ele>
        <time>2011-01-31T10:11:01Z</time>
      </trkpt>
      <trkpt lat="43.61775" lon="6.61845">
        <ele>470</ele>
        <time>2011-01-31T10:11:14Z</time>
      </trkpt>
      <trkpt lat="43.61783" lon="6.6185">
        <ele>478</ele>
        <time>2011-01-31T10:11:24Z</time>
      </trkpt>
      <trkpt lat="43.61792" lon="6.61854">
        <ele>478</ele>
        <time>2011-01-31T10:11:36Z</time>
      </trkpt>
      <trkpt lat="43.61802" lon="6.61858">
        <ele>478</ele>
        <time>2011-01-31T10:11:49Z</time>
      </trkpt>
      <trkpt lat="43.61809" lon="6.61867">
        <ele>478</ele>
        <time>2011-01-31T10:12:03Z</time>
      </trkpt>
      <trkpt lat="43.61815" lon="6.61877">
        <ele>478</ele>
        <time>2011-01-31T10:12:19Z</time>
      </trkpt>
      <trkpt lat="43.61815" lon="6.61891">
        <ele>472</ele>
        <time>2011-01-31T10:12:30Z</time>
      </trkpt>
      <trkpt lat="43.61816" lon="6.61904">
        <ele>478</ele>
        <time>2011-01-31T10:12:44Z</time>
      </trkpt>
      <trkpt lat="43.61816" lon="6.61916">
        <ele>484</ele>
        <time>2011-01-31T10:12:50Z</time>
      </trkpt>
      <trkpt lat="43.61817" lon="6.6193">
        <ele>484</ele>
        <time>2011-01-31T10:13:01Z</time>
      </trkpt>
      <trkpt lat="43.61824" lon="6.61937">
        <ele>477</ele>
        <time>2011-01-31T10:13:14Z</time>
      </trkpt>
      <trkpt lat="43.61828" lon="6.61949">
        <ele>477</ele>
        <time>2011-01-31T10:13:25Z</time>
      </trkpt>
      <trkpt lat="43.61834" lon="6.6196">
        <ele>477</ele>
        <time>2011-01-31T10:13:37Z</time>
      </trkpt>
      <trkpt lat="43.61837" lon="6.61971">
        <ele>477</ele>
        <time>2011-01-31T10:13:49Z</time>
      </trkpt>
      <trkpt lat="43.61839" lon="6.61983">
        <ele>477</ele>
        <time>2011-01-31T10:13:57Z</time>
      </trkpt>
      <trkpt lat="43.6184" lon="6.61996">
        <ele>482</ele>
        <time>2011-01-31T10:14:04Z</time>
      </trkpt>
      <trkpt lat="43.61843" lon="6.62009">
        <ele>488</ele>
        <time>2011-01-31T10:14:18Z</time>
      </trkpt>
      <trkpt lat="43.61849" lon="6.62019">
        <ele>488</ele>
        <time>2011-01-31T10:14:31Z</time>
      </trkpt>
      <trkpt lat="43.61858" lon="6.62024">
        <ele>482</ele>
        <time>2011-01-31T10:14:41Z</time>
      </trkpt>
      <trkpt lat="43.6186" lon="6.62037">
        <ele>482</ele>
        <time>2011-01-31T10:14:52Z</time>
      </trkpt>
      <trkpt lat="43.61855" lon="6.62048">
        <ele>482</ele>
        <time>2011-01-31T10:15:01Z</time>
      </trkpt>
      <trkpt lat="43.61856" lon="6.62061">
        <ele>482</ele>
        <time>2011-01-31T10:15:10Z</time>
      </trkpt>
      <trkpt lat="43.61861" lon="6.62072">
        <ele>482</ele>
        <time>2011-01-31T10:15:19Z</time>
      </trkpt>
      <trkpt lat="43.61864" lon="6.62084">
        <ele>488</ele>
        <time>2011-01-31T10:15:30Z</time>
      </trkpt>
      <trkpt lat="43.61869" lon="6.62096">
        <ele>488</ele>
        <time>2011-01-31T10:15:45Z</time>
      </trkpt>
      <trkpt lat="43.61873" lon="6.62108">
        <ele>488</ele>
        <time>2011-01-31T10:15:53Z</time>
      </trkpt>
      <trkpt lat="43.61873" lon="6.6212">
        <ele>488</ele>
        <time>2011-01-31T10:16:02Z</time>
      </trkpt>
      <trkpt lat="43.6188" lon="6.62128">
        <ele>479</ele>
        <time>2011-01-31T10:16:14Z</time>
      </trkpt>
      <trkpt lat="43.61886" lon="6.62137">
        <ele>479</ele>
        <time>2011-01-31T10:16:25Z</time>
      </trkpt>
      <trkpt lat="43.61894" lon="6.62144">
        <ele>479</ele>
        <time>2011-01-31T10:16:37Z</time>
      </trkpt>
      <trkpt lat="43.61901" lon="6.62151">
        <ele>488</ele>
        <time>2011-01-31T10:16:48Z</time>
      </trkpt>
      <trkpt lat="43.61911" lon="6.62152">
        <ele>488</ele>
        <time>2011-01-31T10:17:01Z</time>
      </trkpt>
      <trkpt lat="43.6192" lon="6.62147">
        <ele>480</ele>
        <time>2011-01-31T10:17:13Z</time>
      </trkpt>
      <trkpt lat="43.61931" lon="6.62143">
        <ele>480</ele>
        <time>2011-01-31T10:17:24Z</time>
      </trkpt>
      <trkpt lat="43.61939" lon="6.62137">
        <ele>472</ele>
        <time>2011-01-31T10:17:32Z</time>
      </trkpt>
      <trkpt lat="43.61948" lon="6.6213">
        <ele>472</ele>
        <time>2011-01-31T10:17:45Z</time>
      </trkpt>
      <trkpt lat="43.61949" lon="6.62143">
        <ele>480</ele>
        <time>2011-01-31T10:18:55Z</time>
      </trkpt>
      <trkpt lat="43.61953" lon="6.62155">
        <ele>480</ele>
        <time>2011-01-31T10:19:06Z</time>
      </trkpt>
      <trkpt lat="43.61956" lon="6.62167">
        <ele>480</ele>
        <time>2011-01-31T10:19:17Z</time>
      </trkpt>
      <trkpt lat="43.61957" lon="6.62181">
        <ele>480</ele>
        <time>2011-01-31T10:19:28Z</time>
      </trkpt>
      <trkpt lat="43.61964" lon="6.62191">
        <ele>480</ele>
        <time>2011-01-31T10:19:43Z</time>
      </trkpt>
      <trkpt lat="43.61974" lon="6.62196">
        <ele>480</ele>
        <time>2011-01-31T10:19:52Z</time>
      </trkpt>
      <trkpt lat="43.61976" lon="6.62208">
        <ele>480</ele>
        <time>2011-01-31T10:20:00Z</time>
      </trkpt>
      <trkpt lat="43.6198" lon="6.6222">
        <ele>480</ele>
        <time>2011-01-31T10:20:09Z</time>
      </trkpt>
      <trkpt lat="43.61988" lon="6.62226">
        <ele>490</ele>
        <time>2011-01-31T10:20:17Z</time>
      </trkpt>
      <trkpt lat="43.61994" lon="6.62236">
        <ele>490</ele>
        <time>2011-01-31T10:20:31Z</time>
      </trkpt>
      <trkpt lat="43.61993" lon="6.6225">
        <ele>490</ele>
        <time>2011-01-31T10:20:41Z</time>
      </trkpt>
      <trkpt lat="43.61991" lon="6.62262">
        <ele>490</ele>
        <time>2011-01-31T10:20:53Z</time>
      </trkpt>
      <trkpt lat="43.61992" lon="6.62276">
        <ele>490</ele>
        <time>2011-01-31T10:21:01Z</time>
      </trkpt>
      <trkpt lat="43.61997" lon="6.62287">
        <ele>490</ele>
        <time>2011-01-31T10:21:09Z</time>
      </trkpt>
      <trkpt lat="43.62" lon="6.623">
        <ele>480</ele>
        <time>2011-01-31T10:21:25Z</time>
      </trkpt>
      <trkpt lat="43.61995" lon="6.62311">
        <ele>480</ele>
        <time>2011-01-31T10:21:33Z</time>
      </trkpt>
      <trkpt lat="43.61992" lon="6.62323">
        <ele>486</ele>
        <time>2011-01-31T10:21:40Z</time>
      </trkpt>
      <trkpt lat="43.61992" lon="6.62336">
        <ele>486</ele>
        <time>2011-01-31T10:21:51Z</time>
      </trkpt>
      <trkpt lat="43.61997" lon="6.62347">
        <ele>480</ele>
        <time>2011-01-31T10:22:02Z</time>
      </trkpt>
      <trkpt lat="43.61997" lon="6.6236">
        <ele>486</ele>
        <time>2011-01-31T10:22:11Z</time>
      </trkpt>
      <trkpt lat="43.61998" lon="6.62373">
        <ele>486</ele>
        <time>2011-01-31T10:22:22Z</time>
      </trkpt>
      <trkpt lat="43.61998" lon="6.62386">
        <ele>486</ele>
        <time>2011-01-31T10:22:31Z</time>
      </trkpt>
      <trkpt lat="43.61999" lon="6.624">
        <ele>486</ele>
        <time>2011-01-31T10:22:40Z</time>
      </trkpt>
      <trkpt lat="43.61997" lon="6.62412">
        <ele>486</ele>
        <time>2011-01-31T10:22:51Z</time>
      </trkpt>
      <trkpt lat="43.62001" lon="6.62424">
        <ele>486</ele>
        <time>2011-01-31T10:22:59Z</time>
      </trkpt>
      <trkpt lat="43.62001" lon="6.62437">
        <ele>486</ele>
        <time>2011-01-31T10:23:10Z</time>
      </trkpt>
      <trkpt lat="43.62001" lon="6.6245">
        <ele>486</ele>
        <time>2011-01-31T10:23:19Z</time>
      </trkpt>
      <trkpt lat="43.62001" lon="6.62464">
        <ele>486</ele>
        <time>2011-01-31T10:23:28Z</time>
      </trkpt>
      <trkpt lat="43.62008" lon="6.62471">
        <ele>486</ele>
        <time>2011-01-31T10:23:40Z</time>
      </trkpt>
      <trkpt lat="43.62008" lon="6.62484">
        <ele>472</ele>
        <time>2011-01-31T10:23:55Z</time>
      </trkpt>
      <trkpt lat="43.62008" lon="6.62498">
        <ele>478</ele>
        <time>2011-01-31T10:24:00Z</time>
      </trkpt>
      <trkpt lat="43.6201" lon="6.6251">
        <ele>478</ele>
        <time>2011-01-31T10:24:13Z</time>
      </trkpt>
      <trkpt lat="43.62014" lon="6.62522">
        <ele>478</ele>
        <time>2011-01-31T10:24:20Z</time>
      </trkpt>
      <trkpt lat="43.62012" lon="6.62535">
        <ele>478</ele>
        <time>2011-01-31T10:24:32Z</time>
      </trkpt>
      <trkpt lat="43.6201" lon="6.62547">
        <ele>478</ele>
        <time>2011-01-31T10:24:44Z</time>
      </trkpt>
      <trkpt lat="43.62011" lon="6.6256">
        <ele>478</ele>
        <time>2011-01-31T10:24:56Z</time>
      </trkpt>
      <trkpt lat="43.62012" lon="6.62573">
        <ele>478</ele>
        <time>2011-01-31T10:25:03Z</time>
      </trkpt>
      <trkpt lat="43.62011" lon="6.62586">
        <ele>478</ele>
        <time>2011-01-31T10:25:10Z</time>
      </trkpt>
      <trkpt lat="43.62019" lon="6.62593">
        <ele>478</ele>
        <time>2011-01-31T10:25:19Z</time>
      </trkpt>
      <trkpt lat="43.62025" lon="6.62603">
        <ele>467</ele>
        <time>2011-01-31T10:25:28Z</time>
      </trkpt>
      <trkpt lat="43.62031" lon="6.62613">
        <ele>467</ele>
        <time>2011-01-31T10:25:38Z</time>
      </trkpt>
      <trkpt lat="43.62033" lon="6.62625">
        <ele>467</ele>
        <time>2011-01-31T10:25:46Z</time>
      </trkpt>
      <trkpt lat="43.62024" lon="6.6263">
        <ele>467</ele>
        <time>2011-01-31T10:26:14Z</time>
      </trkpt>
      <trkpt lat="43.62014" lon="6.6263">
        <ele>461</ele>
        <time>2011-01-31T10:26:24Z</time>
      </trkpt>
      <trkpt lat="43.62006" lon="6.62625">
        <ele>461</ele>
        <time>2011-01-31T10:26:34Z</time>
      </trkpt>
      <trkpt lat="43.61997" lon="6.62619">
        <ele>461</ele>
        <time>2011-01-31T10:26:42Z</time>
      </trkpt>
      <trkpt lat="43.61989" lon="6.62612">
        <ele>461</ele>
        <time>2011-01-31T10:26:51Z</time>
      </trkpt>
      <trkpt lat="43.6198" lon="6.62614">
        <ele>454</ele>
        <time>2011-01-31T10:27:00Z</time>
      </trkpt>
      <trkpt lat="43.61972" lon="6.62623">
        <ele>454</ele>
        <time>2011-01-31T10:27:09Z</time>
      </trkpt>
      <trkpt lat="43.61965" lon="6.62633">
        <ele>454</ele>
        <time>2011-01-31T10:27:21Z</time>
      </trkpt>
      <trkpt lat="43.61961" lon="6.62645">
        <ele>454</ele>
        <time>2011-01-31T10:27:30Z</time>
      </trkpt>
      <trkpt lat="43.61957" lon="6.62658">
        <ele>463</ele>
        <time>2011-01-31T10:27:38Z</time>
      </trkpt>
      <trkpt lat="43.61954" lon="6.62669">
        <ele>463</ele>
        <time>2011-01-31T10:27:56Z</time>
      </trkpt>
      <trkpt lat="43.61947" lon="6.62661">
        <ele>454</ele>
        <time>2011-01-31T10:28:31Z</time>
      </trkpt>
      <trkpt lat="43.61938" lon="6.6266">
        <ele>454</ele>
        <time>2011-01-31T10:28:41Z</time>
      </trkpt>
      <trkpt lat="43.61929" lon="6.62662">
        <ele>454</ele>
        <time>2011-01-31T10:28:49Z</time>
      </trkpt>
      <trkpt lat="43.6192" lon="6.62663">
        <ele>447</ele>
        <time>2011-01-31T10:28:59Z</time>
      </trkpt>
      <trkpt lat="43.61914" lon="6.62673">
        <ele>447</ele>
        <time>2011-01-31T10:29:07Z</time>
      </trkpt>
      <trkpt lat="43.61907" lon="6.6268">
        <ele>447</ele>
        <time>2011-01-31T10:29:16Z</time>
      </trkpt>
      <trkpt lat="43.61899" lon="6.62687">
        <ele>456</ele>
        <time>2011-01-31T10:29:24Z</time>
      </trkpt>
      <trkpt lat="43.61889" lon="6.62691">
        <ele>468</ele>
        <time>2011-01-31T10:29:36Z</time>
      </trkpt>
      <trkpt lat="43.6188" lon="6.62691">
        <ele>468</ele>
        <time>2011-01-31T10:29:45Z</time>
      </trkpt>
      <trkpt lat="43.61871" lon="6.62685">
        <ele>461</ele>
        <time>2011-01-31T10:29:51Z</time>
      </trkpt>
      <trkpt lat="43.61862" lon="6.62684">
        <ele>461</ele>
        <time>2011-01-31T10:30:01Z</time>
      </trkpt>
      <trkpt lat="43.61853" lon="6.62683">
        <ele>470</ele>
        <time>2011-01-31T10:30:12Z</time>
      </trkpt>
      <trkpt lat="43.61843" lon="6.62684">
        <ele>476</ele>
        <time>2011-01-31T10:30:20Z</time>
      </trkpt>
      <trkpt lat="43.61834" lon="6.62684">
        <ele>476</ele>
        <time>2011-01-31T10:30:27Z</time>
      </trkpt>
      <trkpt lat="43.61826" lon="6.62691">
        <ele>476</ele>
        <time>2011-01-31T10:30:36Z</time>
      </trkpt>
      <trkpt lat="43.61818" lon="6.62697">
        <ele>457</ele>
        <time>2011-01-31T10:30:51Z</time>
      </trkpt>
      <trkpt lat="43.61818" lon="6.62711">
        <ele>457</ele>
        <time>2011-01-31T10:30:58Z</time>
      </trkpt>
      <trkpt lat="43.61818" lon="6.62726">
        <ele>457</ele>
        <time>2011-01-31T10:31:08Z</time>
      </trkpt>
      <trkpt lat="43.61815" lon="6.62738">
        <ele>457</ele>
        <time>2011-01-31T10:31:13Z</time>
      </trkpt>
      <trkpt lat="43.61813" lon="6.62751">
        <ele>463</ele>
        <time>2011-01-31T10:31:23Z</time>
      </trkpt>
      <trkpt lat="43.61807" lon="6.62763">
        <ele>463</ele>
        <time>2011-01-31T10:31:33Z</time>
      </trkpt>
      <trkpt lat="43.61807" lon="6.62776">
        <ele>453</ele>
        <time>2011-01-31T10:31:45Z</time>
      </trkpt>
      <trkpt lat="43.61798" lon="6.62776">
        <ele>453</ele>
        <time>2011-01-31T10:32:02Z</time>
      </trkpt>
      <trkpt lat="43.61796" lon="6.6279">
        <ele>458</ele>
        <time>2011-01-31T10:32:10Z</time>
      </trkpt>
      <trkpt lat="43.61793" lon="6.62803">
        <ele>458</ele>
        <time>2011-01-31T10:32:22Z</time>
      </trkpt>
      <trkpt lat="43.61794" lon="6.62817">
        <ele>465</ele>
        <time>2011-01-31T10:32:28Z</time>
      </trkpt>
      <trkpt lat="43.61791" lon="6.62832">
        <ele>476</ele>
        <time>2011-01-31T10:32:38Z</time>
      </trkpt>
      <trkpt lat="43.61786" lon="6.62842">
        <ele>454</ele>
        <time>2011-01-31T10:32:56Z</time>
      </trkpt>
      <trkpt lat="43.61782" lon="6.62853">
        <ele>462</ele>
        <time>2011-01-31T10:33:07Z</time>
      </trkpt>
      <trkpt lat="43.61781" lon="6.62869">
        <ele>478</ele>
        <time>2011-01-31T10:33:20Z</time>
      </trkpt>
      <trkpt lat="43.61774" lon="6.62879">
        <ele>478</ele>
        <time>2011-01-31T10:33:30Z</time>
      </trkpt>
      <trkpt lat="43.61766" lon="6.62886">
        <ele>485</ele>
        <time>2011-01-31T10:33:37Z</time>
      </trkpt>
      <trkpt lat="43.6176" lon="6.62896">
        <ele>485</ele>
        <time>2011-01-31T10:33:47Z</time>
      </trkpt>
      <trkpt lat="43.61751" lon="6.62905">
        <ele>485</ele>
        <time>2011-01-31T10:34:01Z</time>
      </trkpt>
      <trkpt lat="43.61743" lon="6.62912">
        <ele>476</ele>
        <time>2011-01-31T10:34:07Z</time>
      </trkpt>
      <trkpt lat="43.61737" lon="6.62922">
        <ele>476</ele>
        <time>2011-01-31T10:34:16Z</time>
      </trkpt>
      <trkpt lat="43.61732" lon="6.62934">
        <ele>463</ele>
        <time>2011-01-31T10:34:35Z</time>
      </trkpt>
      <trkpt lat="43.6173" lon="6.62947">
        <ele>452</ele>
        <time>2011-01-31T10:34:41Z</time>
      </trkpt>
      <trkpt lat="43.61722" lon="6.62955">
        <ele>452</ele>
        <time>2011-01-31T10:34:52Z</time>
      </trkpt>
      <trkpt lat="43.61719" lon="6.62967">
        <ele>452</ele>
        <time>2011-01-31T10:35:02Z</time>
      </trkpt>
      <trkpt lat="43.61713" lon="6.62978">
        <ele>452</ele>
        <time>2011-01-31T10:35:13Z</time>
      </trkpt>
      <trkpt lat="43.6171" lon="6.6299">
        <ele>452</ele>
        <time>2011-01-31T10:35:21Z</time>
      </trkpt>
      <trkpt lat="43.6171" lon="6.63003">
        <ele>466</ele>
        <time>2011-01-31T10:35:31Z</time>
      </trkpt>
      <trkpt lat="43.61702" lon="6.63016">
        <ele>466</ele>
        <time>2011-01-31T10:35:41Z</time>
      </trkpt>
      <trkpt lat="43.61697" lon="6.63028">
        <ele>448</ele>
        <time>2011-01-31T10:35:56Z</time>
      </trkpt>
      <trkpt lat="43.6169" lon="6.63038">
        <ele>437</ele>
        <time>2011-01-31T10:36:08Z</time>
      </trkpt>
      <trkpt lat="43.61688" lon="6.6305">
        <ele>443</ele>
        <time>2011-01-31T10:36:32Z</time>
      </trkpt>
      <trkpt lat="43.61681" lon="6.6306">
        <ele>454</ele>
        <time>2011-01-31T10:36:49Z</time>
      </trkpt>
      <trkpt lat="43.61672" lon="6.63064">
        <ele>443</ele>
        <time>2011-01-31T10:37:03Z</time>
      </trkpt>
      <trkpt lat="43.61666" lon="6.63074">
        <ele>443</ele>
        <time>2011-01-31T10:37:09Z</time>
      </trkpt>
      <trkpt lat="43.61657" lon="6.63081">
        <ele>443</ele>
        <time>2011-01-31T10:37:20Z</time>
      </trkpt>
      <trkpt lat="43.6165" lon="6.63088">
        <ele>438</ele>
        <time>2011-01-31T10:37:30Z</time>
      </trkpt>
      <trkpt lat="43.61642" lon="6.63093">
        <ele>438</ele>
        <time>2011-01-31T10:37:41Z</time>
      </trkpt>
      <trkpt lat="43.61633" lon="6.63097">
        <ele>444</ele>
        <time>2011-01-31T10:37:52Z</time>
      </trkpt>
      <trkpt lat="43.61627" lon="6.63107">
        <ele>451</ele>
        <time>2011-01-31T10:38:02Z</time>
      </trkpt>
      <trkpt lat="43.61624" lon="6.63118">
        <ele>460</ele>
        <time>2011-01-31T10:38:07Z</time>
      </trkpt>
      <trkpt lat="43.61618" lon="6.63129">
        <ele>466</ele>
        <time>2011-01-31T10:38:16Z</time>
      </trkpt>
      <trkpt lat="43.61608" lon="6.63133">
        <ele>453</ele>
        <time>2011-01-31T10:38:27Z</time>
      </trkpt>
      <trkpt lat="43.61603" lon="6.63145">
        <ele>438</ele>
        <time>2011-01-31T10:38:42Z</time>
      </trkpt>
      <trkpt lat="43.616" lon="6.63157">
        <ele>424</ele>
        <time>2011-01-31T10:38:52Z</time>
      </trkpt>
      <trkpt lat="43.61599" lon="6.63171">
        <ele>424</ele>
        <time>2011-01-31T10:39:02Z</time>
      </trkpt>
      <trkpt lat="43.61595" lon="6.63186">
        <ele>434</ele>
        <time>2011-01-31T10:39:12Z</time>
      </trkpt>
      <trkpt lat="43.61588" lon="6.63196">
        <ele>434</ele>
        <time>2011-01-31T10:39:21Z</time>
      </trkpt>
      <trkpt lat="43.61581" lon="6.63204">
        <ele>425</ele>
        <time>2011-01-31T10:39:31Z</time>
      </trkpt>
      <trkpt lat="43.61579" lon="6.63216">
        <ele>425</ele>
        <time>2011-01-31T10:39:40Z</time>
      </trkpt>
      <trkpt lat="43.61574" lon="6.63227">
        <ele>425</ele>
        <time>2011-01-31T10:39:45Z</time>
      </trkpt>
      <trkpt lat="43.61571" lon="6.63239">
        <ele>425</ele>
        <time>2011-01-31T10:39:57Z</time>
      </trkpt>
      <trkpt lat="43.61565" lon="6.63251">
        <ele>411</ele>
        <time>2011-01-31T10:40:14Z</time>
      </trkpt>
      <trkpt lat="43.61557" lon="6.63262">
        <ele>411</ele>
        <time>2011-01-31T10:40:23Z</time>
      </trkpt>
      <trkpt lat="43.61552" lon="6.63272">
        <ele>424</ele>
        <time>2011-01-31T10:40:31Z</time>
      </trkpt>
      <trkpt lat="43.61546" lon="6.63283">
        <ele>436</ele>
        <time>2011-01-31T10:40:45Z</time>
      </trkpt>
      <trkpt lat="43.61539" lon="6.63292">
        <ele>431</ele>
        <time>2011-01-31T10:40:53Z</time>
      </trkpt>
      <trkpt lat="43.61533" lon="6.63301">
        <ele>425</ele>
        <time>2011-01-31T10:41:04Z</time>
      </trkpt>
      <trkpt lat="43.61526" lon="6.63311">
        <ele>425</ele>
        <time>2011-01-31T10:41:16Z</time>
      </trkpt>
      <trkpt lat="43.61522" lon="6.63321">
        <ele>425</ele>
        <time>2011-01-31T10:41:42Z</time>
      </trkpt>
      <trkpt lat="43.61516" lon="6.63332">
        <ele>419</ele>
        <time>2011-01-31T10:41:55Z</time>
      </trkpt>
      <trkpt lat="43.61512" lon="6.63344">
        <ele>419</ele>
        <time>2011-01-31T10:42:00Z</time>
      </trkpt>
      <trkpt lat="43.61507" lon="6.63356">
        <ele>419</ele>
        <time>2011-01-31T10:42:21Z</time>
      </trkpt>
      <trkpt lat="43.61501" lon="6.63368">
        <ele>419</ele>
        <time>2011-01-31T10:42:29Z</time>
      </trkpt>
      <trkpt lat="43.61495" lon="6.63379">
        <ele>410</ele>
        <time>2011-01-31T10:42:46Z</time>
      </trkpt>
      <trkpt lat="43.61488" lon="6.63387">
        <ele>410</ele>
        <time>2011-01-31T10:43:00Z</time>
      </trkpt>
      <trkpt lat="43.61483" lon="6.63399">
        <ele>410</ele>
        <time>2011-01-31T10:43:06Z</time>
      </trkpt>
      <trkpt lat="43.61479" lon="6.6341">
        <ele>410</ele>
        <time>2011-01-31T10:43:13Z</time>
      </trkpt>
      <trkpt lat="43.61482" lon="6.63425">
        <ele>417</ele>
        <time>2011-01-31T10:43:20Z</time>
      </trkpt>
      <trkpt lat="43.6149" lon="6.63417">
        <ele>399</ele>
        <time>2011-01-31T10:43:35Z</time>
      </trkpt>
      <trkpt lat="43.61499" lon="6.63418">
        <ele>399</ele>
        <time>2011-01-31T10:43:58Z</time>
      </trkpt>
      <trkpt lat="43.61509" lon="6.63417">
        <ele>399</ele>
        <time>2011-01-31T10:44:19Z</time>
      </trkpt>
      <trkpt lat="43.61514" lon="6.63407">
        <ele>399</ele>
        <time>2011-01-31T10:44:29Z</time>
      </trkpt>
      <trkpt lat="43.61524" lon="6.634">
        <ele>399</ele>
        <time>2011-01-31T10:44:40Z</time>
      </trkpt>
      <trkpt lat="43.61533" lon="6.634">
        <ele>399</ele>
        <time>2011-01-31T10:44:47Z</time>
      </trkpt>
      <trkpt lat="43.61541" lon="6.63406">
        <ele>399</ele>
        <time>2011-01-31T10:44:55Z</time>
      </trkpt>
      <trkpt lat="43.61539" lon="6.63419">
        <ele>399</ele>
        <time>2011-01-31T10:45:14Z</time>
      </trkpt>
      <trkpt lat="43.61534" lon="6.63435">
        <ele>392</ele>
        <time>2011-01-31T10:45:28Z</time>
      </trkpt>
      <trkpt lat="43.61527" lon="6.63442">
        <ele>392</ele>
        <time>2011-01-31T10:45:36Z</time>
      </trkpt>
      <trkpt lat="43.61518" lon="6.63447">
        <ele>392</ele>
        <time>2011-01-31T10:45:58Z</time>
      </trkpt>
      <trkpt lat="43.6151" lon="6.63452">
        <ele>392</ele>
        <time>2011-01-31T10:46:08Z</time>
      </trkpt>
      <trkpt lat="43.61506" lon="6.63463">
        <ele>385</ele>
        <time>2011-01-31T10:46:20Z</time>
      </trkpt>
      <trkpt lat="43.61505" lon="6.63476">
        <ele>385</ele>
        <time>2011-01-31T10:46:27Z</time>
      </trkpt>
      <trkpt lat="43.61507" lon="6.63489">
        <ele>385</ele>
        <time>2011-01-31T10:46:37Z</time>
      </trkpt>
      <trkpt lat="43.61511" lon="6.63499">
        <ele>385</ele>
        <time>2011-01-31T10:46:52Z</time>
      </trkpt>
      <trkpt lat="43.61515" lon="6.63513">
        <ele>392</ele>
        <time>2011-01-31T10:47:01Z</time>
      </trkpt>
      <trkpt lat="43.6152" lon="6.63525">
        <ele>392</ele>
        <time>2011-01-31T10:47:13Z</time>
      </trkpt>
      <trkpt lat="43.61527" lon="6.63533">
        <ele>383</ele>
        <time>2011-01-31T10:47:26Z</time>
      </trkpt>
      <trkpt lat="43.61532" lon="6.63544">
        <ele>383</ele>
        <time>2011-01-31T10:47:35Z</time>
      </trkpt>
      <trkpt lat="43.61532" lon="6.63557">
        <ele>378</ele>
        <time>2011-01-31T10:47:45Z</time>
      </trkpt>
      <trkpt lat="43.61527" lon="6.63567">
        <ele>378</ele>
        <time>2011-01-31T10:47:55Z</time>
      </trkpt>
      <trkpt lat="43.61518" lon="6.63575">
        <ele>378</ele>
        <time>2011-01-31T10:48:08Z</time>
      </trkpt>
      <trkpt lat="43.61511" lon="6.63584">
        <ele>378</ele>
        <time>2011-01-31T10:48:15Z</time>
      </trkpt>
      <trkpt lat="43.61515" lon="6.63595">
        <ele>378</ele>
        <time>2011-01-31T10:48:23Z</time>
      </trkpt>
      <trkpt lat="43.61514" lon="6.63608">
        <ele>378</ele>
        <time>2011-01-31T10:48:32Z</time>
      </trkpt>
      <trkpt lat="43.61509" lon="6.63621">
        <ele>378</ele>
        <time>2011-01-31T10:48:42Z</time>
      </trkpt>
      <trkpt lat="43.61507" lon="6.63633">
        <ele>368</ele>
        <time>2011-01-31T10:48:58Z</time>
      </trkpt>
      <trkpt lat="43.6151" lon="6.63645">
        <ele>360</ele>
        <time>2011-01-31T10:49:10Z</time>
      </trkpt>
      <trkpt lat="43.61505" lon="6.63655">
        <ele>366</ele>
        <time>2011-01-31T10:49:18Z</time>
      </trkpt>
      <trkpt lat="43.61497" lon="6.63664">
        <ele>372</ele>
        <time>2011-01-31T10:49:25Z</time>
      </trkpt>
      <trkpt lat="43.61489" lon="6.6367">
        <ele>372</ele>
        <time>2011-01-31T10:49:37Z</time>
      </trkpt>
      <trkpt lat="43.61479" lon="6.63675">
        <ele>372</ele>
        <time>2011-01-31T10:49:51Z</time>
      </trkpt>
      <trkpt lat="43.61471" lon="6.63683">
        <ele>372</ele>
        <time>2011-01-31T10:49:57Z</time>
      </trkpt>
      <trkpt lat="43.61467" lon="6.63694">
        <ele>372</ele>
        <time>2011-01-31T10:50:09Z</time>
      </trkpt>
      <trkpt lat="43.61475" lon="6.63702">
        <ele>366</ele>
        <time>2011-01-31T10:50:21Z</time>
      </trkpt>
      <trkpt lat="43.61482" lon="6.63695">
        <ele>366</ele>
        <time>2011-01-31T10:50:27Z</time>
      </trkpt>
      <trkpt lat="43.61491" lon="6.63691">
        <ele>358</ele>
        <time>2011-01-31T10:50:33Z</time>
      </trkpt>
      <trkpt lat="43.61499" lon="6.63686">
        <ele>346</ele>
        <time>2011-01-31T10:50:50Z</time>
      </trkpt>
      <trkpt lat="43.61512" lon="6.63682">
        <ele>346</ele>
        <time>2011-01-31T10:50:58Z</time>
      </trkpt>
      <trkpt lat="43.61518" lon="6.63691">
        <ele>356</ele>
        <time>2011-01-31T10:51:06Z</time>
      </trkpt>
      <trkpt lat="43.61514" lon="6.63702">
        <ele>363</ele>
        <time>2011-01-31T10:51:18Z</time>
      </trkpt>
      <trkpt lat="43.61507" lon="6.6371">
        <ele>363</ele>
        <time>2011-01-31T10:51:26Z</time>
      </trkpt>
      <trkpt lat="43.615" lon="6.63718">
        <ele>363</ele>
        <time>2011-01-31T10:51:35Z</time>
      </trkpt>
      <trkpt lat="43.61493" lon="6.63725">
        <ele>363</ele>
        <time>2011-01-31T10:51:48Z</time>
      </trkpt>
      <trkpt lat="43.61483" lon="6.63727">
        <ele>363</ele>
        <time>2011-01-31T10:51:54Z</time>
      </trkpt>
      <trkpt lat="43.61475" lon="6.63735">
        <ele>350</ele>
        <time>2011-01-31T10:52:07Z</time>
      </trkpt>
      <trkpt lat="43.61465" lon="6.63739">
        <ele>350</ele>
        <time>2011-01-31T10:52:22Z</time>
      </trkpt>
      <trkpt lat="43.6146" lon="6.63749">
        <ele>350</ele>
        <time>2011-01-31T10:52:40Z</time>
      </trkpt>
      <trkpt lat="43.6146" lon="6.63763">
        <ele>350</ele>
        <time>2011-01-31T10:53:02Z</time>
      </trkpt>
      <trkpt lat="43.6146" lon="6.63775">
        <ele>356</ele>
        <time>2011-01-31T10:53:12Z</time>
      </trkpt>
      <trkpt lat="43.61464" lon="6.63786">
        <ele>356</ele>
        <time>2011-01-31T10:53:34Z</time>
      </trkpt>
      <trkpt lat="43.61472" lon="6.63792">
        <ele>347</ele>
        <time>2011-01-31T10:53:55Z</time>
      </trkpt>
      <trkpt lat="43.61471" lon="6.63805">
        <ele>347</ele>
        <time>2011-01-31T10:54:13Z</time>
      </trkpt>
      <trkpt lat="43.61477" lon="6.63815">
        <ele>347</ele>
        <time>2011-01-31T10:55:08Z</time>
      </trkpt>
      <trkpt lat="43.61478" lon="6.63828">
        <ele>347</ele>
        <time>2011-01-31T10:55:43Z</time>
      </trkpt>
      <trkpt lat="43.61482" lon="6.63841">
        <ele>347</ele>
        <time>2011-01-31T10:56:13Z</time>
      </trkpt>
      <trkpt lat="43.61481" lon="6.63853">
        <ele>347</ele>
        <time>2011-01-31T10:56:22Z</time>
      </trkpt>
      <trkpt lat="43.61481" lon="6.63867">
        <ele>347</ele>
        <time>2011-01-31T10:56:33Z</time>
      </trkpt>
      <trkpt lat="43.61481" lon="6.63879">
        <ele>347</ele>
        <time>2011-01-31T10:56:59Z</time>
      </trkpt>
      <trkpt lat="43.6148" lon="6.63892">
        <ele>347</ele>
        <time>2011-01-31T10:57:09Z</time>
      </trkpt>
      <trkpt lat="43.61478" lon="6.63904">
        <ele>347</ele>
        <time>2011-01-31T10:57:19Z</time>
      </trkpt>
      <trkpt lat="43.61478" lon="6.63917">
        <ele>347</ele>
        <time>2011-01-31T10:57:28Z</time>
      </trkpt>
      <trkpt lat="43.61475" lon="6.63929">
        <ele>347</ele>
        <time>2011-01-31T10:57:38Z</time>
      </trkpt>
      <trkpt lat="43.61473" lon="6.6394">
        <ele>347</ele>
        <time>2011-01-31T10:57:48Z</time>
      </trkpt>
      <trkpt lat="43.61468" lon="6.63951">
        <ele>347</ele>
        <time>2011-01-31T10:57:58Z</time>
      </trkpt>
      <trkpt lat="43.61463" lon="6.63961">
        <ele>352</ele>
        <time>2011-01-31T10:58:08Z</time>
      </trkpt>
      <trkpt lat="43.61455" lon="6.6397">
        <ele>352</ele>
        <time>2011-01-31T10:58:20Z</time>
      </trkpt>
      <trkpt lat="43.61446" lon="6.63971">
        <ele>352</ele>
        <time>2011-01-31T10:58:26Z</time>
      </trkpt>
      <trkpt lat="43.61441" lon="6.63982">
        <ele>347</ele>
        <time>2011-01-31T10:58:35Z</time>
      </trkpt>
      <trkpt lat="43.61439" lon="6.63994">
        <ele>353</ele>
        <time>2011-01-31T10:58:47Z</time>
      </trkpt>
      <trkpt lat="43.6143" lon="6.63992">
        <ele>353</ele>
        <time>2011-01-31T10:58:57Z</time>
      </trkpt>
      <trkpt lat="43.61421" lon="6.63988">
        <ele>359</ele>
        <time>2011-01-31T10:59:06Z</time>
      </trkpt>
      <trkpt lat="43.61428" lon="6.63997">
        <ele>359</ele>
        <time>2011-01-31T10:59:46Z</time>
      </trkpt>
      <trkpt lat="43.61437" lon="6.64001">
        <ele>359</ele>
        <time>2011-01-31T10:59:51Z</time>
      </trkpt>
      <trkpt lat="43.61445" lon="6.64009">
        <ele>359</ele>
        <time>2011-01-31T11:00:25Z</time>
      </trkpt>
      <trkpt lat="43.61453" lon="6.64013">
        <ele>359</ele>
        <time>2011-01-31T11:00:42Z</time>
      </trkpt>
      <trkpt lat="43.61464" lon="6.64015">
        <ele>359</ele>
        <time>2011-01-31T11:00:57Z</time>
      </trkpt>
      <trkpt lat="43.61473" lon="6.64015">
        <ele>352</ele>
        <time>2011-01-31T11:01:11Z</time>
      </trkpt>
      <trkpt lat="43.61482" lon="6.64018">
        <ele>352</ele>
        <time>2011-01-31T11:01:22Z</time>
      </trkpt>
      <trkpt lat="43.6149" lon="6.64026">
        <ele>352</ele>
        <time>2011-01-31T11:01:35Z</time>
      </trkpt>
      <trkpt lat="43.61499" lon="6.64024">
        <ele>364</ele>
        <time>2011-01-31T11:01:45Z</time>
      </trkpt>
      <trkpt lat="43.6149" lon="6.64019">
        <ele>370</ele>
        <time>2011-01-31T11:02:12Z</time>
      </trkpt>
      <trkpt lat="43.61482" lon="6.64026">
        <ele>370</ele>
        <time>2011-01-31T11:02:25Z</time>
      </trkpt>
      <trkpt lat="43.61477" lon="6.64037">
        <ele>370</ele>
        <time>2011-01-31T11:02:37Z</time>
      </trkpt>
      <trkpt lat="43.61469" lon="6.64044">
        <ele>370</ele>
        <time>2011-01-31T11:02:49Z</time>
      </trkpt>
      <trkpt lat="43.6146" lon="6.64048">
        <ele>370</ele>
        <time>2011-01-31T11:02:59Z</time>
      </trkpt>
      <trkpt lat="43.61456" lon="6.64059">
        <ele>370</ele>
        <time>2011-01-31T11:03:12Z</time>
      </trkpt>
      <trkpt lat="43.6145" lon="6.64069">
        <ele>370</ele>
        <time>2011-01-31T11:03:24Z</time>
      </trkpt>
      <trkpt lat="43.61446" lon="6.64081">
        <ele>376</ele>
        <time>2011-01-31T11:03:37Z</time>
      </trkpt>
      <trkpt lat="43.61437" lon="6.64086">
        <ele>376</ele>
        <time>2011-01-31T11:03:54Z</time>
      </trkpt>
      <trkpt lat="43.61428" lon="6.64089">
        <ele>376</ele>
        <time>2011-01-31T11:04:04Z</time>
      </trkpt>
      <trkpt lat="43.6142" lon="6.64095">
        <ele>376</ele>
        <time>2011-01-31T11:04:14Z</time>
      </trkpt>
      <trkpt lat="43.61411" lon="6.64098">
        <ele>376</ele>
        <time>2011-01-31T11:04:26Z</time>
      </trkpt>
      <trkpt lat="43.61402" lon="6.64104">
        <ele>376</ele>
        <time>2011-01-31T11:04:36Z</time>
      </trkpt>
      <trkpt lat="43.61395" lon="6.64111">
        <ele>376</ele>
        <time>2011-01-31T11:04:47Z</time>
      </trkpt>
      <trkpt lat="43.61386" lon="6.64115">
        <ele>370</ele>
        <time>2011-01-31T11:04:56Z</time>
      </trkpt>
      <trkpt lat="43.61379" lon="6.64122">
        <ele>370</ele>
        <time>2011-01-31T11:05:07Z</time>
      </trkpt>
      <trkpt lat="43.61383" lon="6.64134">
        <ele>365</ele>
        <time>2011-01-31T11:05:17Z</time>
      </trkpt>
      <trkpt lat="43.61379" lon="6.64145">
        <ele>365</ele>
        <time>2011-01-31T11:05:30Z</time>
      </trkpt>
      <trkpt lat="43.61374" lon="6.64156">
        <ele>378</ele>
        <time>2011-01-31T11:06:54Z</time>
      </trkpt>
      <trkpt lat="43.61373" lon="6.64143">
        <ele>371</ele>
        <time>2011-01-31T11:07:52Z</time>
      </trkpt>
      <trkpt lat="43.61382" lon="6.64148">
        <ele>371</ele>
        <time>2011-01-31T11:08:17Z</time>
      </trkpt>
      <trkpt lat="43.61375" lon="6.64137">
        <ele>378</ele>
        <time>2011-01-31T11:09:15Z</time>
      </trkpt>
      <trkpt lat="43.61383" lon="6.64143">
        <ele>378</ele>
        <time>2011-01-31T11:10:05Z</time>
      </trkpt>
      <trkpt lat="43.61379" lon="6.64154">
        <ele>378</ele>
        <time>2011-01-31T11:12:21Z</time>
      </trkpt>
    </trkseg>
  </trk>
</gpx>